Observation data for Palo Duro Canyon State Park Rim on 08/14/2019      Previous  Date  Next       Current Mesonet Observations  Soil Data  Daily Summary Page  Observations in Plain Language
KPD1 140500Z 10005KT 25/17 A3019 RMK A01 T02480173  RH  063%=      5-min Rain = 0
KPD1 140501Z 11005KT 25/17 A3019 RMK A01 T02480173  RH  063%=      5-min Rain = 0
KPD1 140502Z 10004KT 25/17 A3019 RMK A01 T02480173  RH  063%=      5-min Rain = 0
KPD1 140503Z 11004KT 25/17 A3019 RMK A01 T02470173  RH  063%=      5-min Rain = 0
KPD1 140504Z 11004KT 25/17 A3019 RMK A01 T02470173  RH  063%=      5-min Rain = 0
KPD1 140505Z 10006KT 25/17 A3019 RMK A01 T02460173  RH  063%=      5-min Rain = 0
KPD1 140506Z 10004KT 25/17 A3019 RMK A01 T02460173  RH  063%=      5-min Rain = 0
KPD1 140507Z 11004KT 25/17 A3019 RMK A01 T02460172  RH  063%=      5-min Rain = 0
KPD1 140508Z 10005KT 25/17 A302 RMK A01 T02460173  RH  063%=      5-min Rain = 0
KPD1 140509Z 11003KT 25/17 A302 RMK A01 T02460173  RH  063%=      5-min Rain = 0
KPD1 140510Z 10004KT 25/17 A302 RMK A01 T02460173  RH  064%=      5-min Rain = 0
KPD1 140526Z 08008KT 25/17 A3021 RMK A01 T02480171  RH  062%=      5-min Rain = 0
KPD1 140527Z 09007KT 25/17 A3021 RMK A01 T02490171  RH  062%=      5-min Rain = 0
KPD1 140528Z 07009KT 25/17 A3021 RMK A01 T02490171  RH  062%=      5-min Rain = 0
KPD1 140529Z 08010KT 25/17 A3021 RMK A01 T02490171  RH  062%=      5-min Rain = 0
KPD1 140530Z 08009KT 25/17 A3021 RMK A01 T02500171  RH  061%=      5-min Rain = 0
KPD1 140531Z 09008KT 25/17 A3021 RMK A01 T02510171  RH  061%=      5-min Rain = 0
KPD1 140532Z 09008KT 25/17 A3021 RMK A01 T02500171  RH  061%=      5-min Rain = 0
KPD1 140533Z 08011KT 25/17 A3021 RMK A01 T02510171  RH  061%=      5-min Rain = 0
KPD1 140534Z 08010KT 25/17 A3022 RMK A01 T02500171  RH  061%=      5-min Rain = 0
KPD1 140535Z 08008KT 25/17 A3022 RMK A01 T02510171  RH  061%=      5-min Rain = 0
KPD1 140536Z 08008KT 25/17 A3022 RMK A01 T02510172  RH  061%=      5-min Rain = 0
KPD1 140537Z 08008KT 25/17 A3022 RMK A01 T02510172  RH  062%=      5-min Rain = 0
KPD1 140538Z 07009KT 25/17 A3022 RMK A01 T02500172  RH  062%=      5-min Rain = 0
KPD1 140539Z 08008KT 25/17 A3022 RMK A01 T02490172  RH  062%=      5-min Rain = 0
KPD1 140540Z 08011KT 25/17 A3022 RMK A01 T02490172  RH  063%=      5-min Rain = 0
KPD1 140541Z 08012KT 25/17 A3022 RMK A01 T02480172  RH  063%=      5-min Rain = 0
KPD1 140542Z 08010KT 25/17 A3022 RMK A01 T02470173  RH  063%=      5-min Rain = 0
KPD1 140543Z 07009KT 25/17 A3022 RMK A01 T02470173  RH  063%=      5-min Rain = 0
KPD1 140544Z 08012KT 25/17 A3022 RMK A01 T02460173  RH  064%=      5-min Rain = 0
KPD1 140545Z 08011KT 25/17 A3022 RMK A01 T02460173  RH  064%=      5-min Rain = 0
KPD1 140546Z 08008KT 25/17 A3022 RMK A01 T02450173  RH  064%=      5-min Rain = 0
KPD1 140547Z 08008G13KT 25/17 A3022 RMK A01 T02450173  RH  064%=      5-min Rain = 0
KPD1 140548Z 09010G15KT 24/17 A3022 RMK A01 T02440173  RH  064%=      5-min Rain = 0
KPD1 140549Z 08011G16KT 24/17 A3022 RMK A01 T02440172  RH  064%=      5-min Rain = 0
KPD1 140550Z 08009KT 24/17 A3022 RMK A01 T02440172  RH  064%=      5-min Rain = 0
KPD1 140551Z 09010G16KT 25/17 A3022 RMK A01 T02450172  RH  064%=      5-min Rain = 0
KPD1 140552Z 09010KT 25/17 A3022 RMK A01 T02450172  RH  064%=      5-min Rain = 0
KPD1 140553Z 09010KT 25/17 A3022 RMK A01 T02450172  RH  064%=      5-min Rain = 0
KPD1 140554Z 08011KT 25/17 A3022 RMK A01 T02460172  RH  063%=      5-min Rain = 0
KPD1 140555Z 09010KT 25/17 A3022 RMK A01 T02460171  RH  063%=      5-min Rain = 0
KPD1 140556Z 08008G13KT 25/17 A3022 RMK A01 T02460172  RH  063%=      5-min Rain = 0
KPD1 140557Z 08012KT 25/17 A3022 RMK A01 T02470173  RH  063%=      5-min Rain = 0
KPD1 140558Z 08009KT 25/17 A3022 RMK A01 T02470173  RH  064%=      5-min Rain = 0
KPD1 140559Z 08012KT 25/17 A3022 RMK A01 T02460172  RH  064%=      5-min Rain = 0
KPD1 140600Z 08009KT 25/17 A3022 RMK A01 T02460173  RH  064%=      5-min Rain = 0
KPD1 140601Z 08010KT 25/17 A3022 RMK A01 T02450173  RH  064%=      5-min Rain = 0
KPD1 140602Z 08010KT 25/17 A3022 RMK A01 T02450173  RH  064%=      5-min Rain = 0
KPD1 140603Z 08012KT 25/17 A3022 RMK A01 T02450173  RH  064%=      5-min Rain = 0
KPD1 140604Z 09009G14KT 25/17 A3022 RMK A01 T02450172  RH  064%=      5-min Rain = 0
KPD1 140605Z 08009KT 25/17 A3022 RMK A01 T02450173  RH  064%=      5-min Rain = 0
KPD1 140606Z 08010G15KT 25/17 A3022 RMK A01 T02450174  RH  064%=      5-min Rain = 0
KPD1 140607Z 08010KT 24/17 A3021 RMK A01 T02440174  RH  065%=      5-min Rain = 0
KPD1 140608Z 09009KT 24/17 A3021 RMK A01 T02430173  RH  065%=      5-min Rain = 0
KPD1 140609Z 09011G16KT 24/17 A3021 RMK A01 T02430173  RH  065%=      5-min Rain = 0
KPD1 140610Z 09009G15KT 24/17 A3021 RMK A01 T02430173  RH  065%=      5-min Rain = 0
KPD1 140611Z 08011KT 24/17 A3021 RMK A01 T02430172  RH  065%=      5-min Rain = 0
KPD1 140612Z 08007G13KT 24/17 A3021 RMK A01 T02430172  RH  065%=      5-min Rain = 0
KPD1 140613Z 08006KT 24/17 A3021 RMK A01 T02430172  RH  065%=      5-min Rain = 0
KPD1 140614Z 10006KT 24/17 A3021 RMK A01 T02420172  RH  065%=      5-min Rain = 0
KPD1 140615Z 08007G14KT 24/17 A3021 RMK A01 T02420172  RH  065%=      5-min Rain = 0
KPD1 140616Z 10006KT 24/17 A3021 RMK A01 T02410173  RH  065%=      5-min Rain = 0
KPD1 140617Z 09007KT 24/17 A3021 RMK A01 T02410173  RH  066%=      5-min Rain = 0
KPD1 140618Z 10006KT 24/17 A3021 RMK A01 T02410173  RH  066%=      5-min Rain = 0
KPD1 140619Z 10006KT 24/17 A3021 RMK A01 T02400173  RH  066%=      5-min Rain = 0
KPD1 140620Z 11009KT 24/17 A3021 RMK A01 T02390173  RH  066%=      5-min Rain = 0
KPD1 140621Z 10007KT 24/17 A3021 RMK A01 T02390173  RH  066%=      5-min Rain = 0
KPD1 140622Z 10005KT 24/17 A3021 RMK A01 T02390173  RH  067%=      5-min Rain = 0
KPD1 140623Z 10006KT 24/17 A3021 RMK A01 T02380173  RH  067%=      5-min Rain = 0
KPD1 140624Z 10005KT 24/17 A3021 RMK A01 T02380173  RH  067%=      5-min Rain = 0
KPD1 140625Z 09005KT 24/17 A3021 RMK A01 T02370174  RH  068%=      5-min Rain = 0
KPD1 140626Z 11006KT 24/17 A3021 RMK A01 T02360173  RH  068%=      5-min Rain = 0
KPD1 140627Z 09005KT 24/17 A3021 RMK A01 T02360173  RH  068%=      5-min Rain = 0
KPD1 140628Z 11006KT 24/17 A3021 RMK A01 T02360173  RH  068%=      5-min Rain = 0
KPD1 140629Z 10009KT 24/17 A3021 RMK A01 T02360173  RH  068%=      5-min Rain = 0
KPD1 140630Z 10009KT 24/17 A3021 RMK A01 T02360173  RH  068%=      5-min Rain = 0
KPD1 140631Z 12007KT 24/17 A3021 RMK A01 T02360172  RH  067%=      5-min Rain = 0
KPD1 140632Z 11006KT 24/17 A3021 RMK A01 T02360173  RH  067%=      5-min Rain = 0
KPD1 140633Z 10007KT 24/17 A3021 RMK A01 T02360173  RH  068%=      5-min Rain = 0
KPD1 140634Z 10006KT 24/17 A3021 RMK A01 T02360173  RH  068%=      5-min Rain = 0
KPD1 140635Z 10007KT 24/17 A3021 RMK A01 T02360173  RH  068%=      5-min Rain = 0
KPD1 140636Z 09007KT 24/17 A3021 RMK A01 T02360172  RH  067%=      5-min Rain = 0
KPD1 140637Z 10004KT 24/17 A3021 RMK A01 T02360172  RH  067%=      5-min Rain = 0
KPD1 140638Z 10006KT 24/17 A3021 RMK A01 T02360172  RH  067%=      5-min Rain = 0
KPD1 140639Z 11006KT 24/17 A3021 RMK A01 T02360172  RH  067%=      5-min Rain = 0
KPD1 140640Z 11007KT 24/17 A3021 RMK A01 T02360172  RH  067%=      5-min Rain = 0
KPD1 140641Z 10006KT 24/17 A3021 RMK A01 T02360172  RH  067%=      5-min Rain = 0
KPD1 140642Z 11004KT 24/17 A3021 RMK A01 T02360172  RH  067%=      5-min Rain = 0
KPD1 140643Z 10004KT 24/17 A3021 RMK A01 T02360172  RH  067%=      5-min Rain = 0
KPD1 140644Z 08006KT 24/17 A3021 RMK A01 T02360172  RH  067%=      5-min Rain = 0
KPD1 140645Z 11004KT 24/17 A3021 RMK A01 T02360172  RH  067%=      5-min Rain = 0
KPD1 140646Z 09007KT 24/17 A3021 RMK A01 T02360172  RH  067%=      5-min Rain = 0
KPD1 140647Z 07008KT 24/17 A3021 RMK A01 T02360172  RH  067%=      5-min Rain = 0
KPD1 140648Z 05009KT 24/17 A3022 RMK A01 T02370172  RH  067%=      5-min Rain = 0
KPD1 140649Z 04012G20KT 24/17 A3022 RMK A01 T02370173  RH  067%=      5-min Rain = 0
KPD1 140650Z 04012G18KT 24/18 A3023 RMK A01 T02360175  RH  069%=      5-min Rain = 0
KPD1 140651Z 04015G21KT 23/17 A3023 RMK A01 T02320174  RH  070%=      5-min Rain = 0
KPD1 140652Z 04013KT 23/17 A3023 RMK A01 T02280174  RH  071%=      5-min Rain = 0
KPD1 140653Z 04015KT 23/17 A3023 RMK A01 T02250173  RH  072%=      5-min Rain = 0
KPD1 140654Z 05011G19KT 22/17 A3023 RMK A01 T02220171  RH  073%=      5-min Rain = 0
KPD1 140655Z 05013G18KT 22/17 A3023 RMK A01 T02210170  RH  073%=      5-min Rain = 0
KPD1 140656Z 05009KT 22/17 A3023 RMK A01 T02190169  RH  073%=      5-min Rain = 0
KPD1 140657Z 06009G14KT 22/17 A3023 RMK A01 T02180169  RH  074%=      5-min Rain = 0
KPD1 140658Z 05012G17KT 22/17 A3023 RMK A01 T02170166  RH  073%=      5-min Rain = 0
KPD1 140659Z 05012G22KT 22/16 A3023 RMK A01 T02160162  RH  071%=      5-min Rain = 0
KPD1 140700Z 06011G17KT 22/16 A3022 RMK A01 T02150159  RH  070%=      5-min Rain = 0
KPD1 140701Z 06011G19KT 21/16 A3022 RMK A01 T02130157  RH  070%=      5-min Rain = 0
KPD1 140702Z 06012G18KT 21/16 A3022 RMK A01 T02120156  RH  070%=      5-min Rain = 0
KPD1 140703Z 06014G19KT 21/15 A3022 RMK A01 T02110154  RH  070%=      5-min Rain = 0
KPD1 140704Z 05014G19KT 21/15 A3022 RMK A01 T02100154  RH  070%=      5-min Rain = 0
KPD1 140705Z 05015KT 21/15 A3022 RMK A01 T02100153  RH  070%=      5-min Rain = 0
KPD1 140706Z 06013G18KT 21/15 A3022 RMK A01 T02090151  RH  070%=      5-min Rain = 0
KPD1 140707Z 06012KT 21/15 A3022 RMK A01 T02080151  RH  070%=      5-min Rain = 0
KPD1 140708Z 06011G17KT 21/15 A3022 RMK A01 T02070150  RH  070%=      5-min Rain = 0
KPD1 140709Z 05008G13KT 21/15 A3022 RMK A01 T02070150  RH  070%=      5-min Rain = 0
KPD1 140710Z 05014G21KT 21/15 A3023 RMK A01 T02060149  RH  070%=      5-min Rain = 0
KPD1 140711Z 05011G18KT 21/15 A3023 RMK A01 T02060148  RH  069%=      5-min Rain = 0
KPD1 140712Z 05013KT 21/15 A3023 RMK A01 T02050148  RH  069%=      5-min Rain = 0
KPD1 140713Z 04009G15KT 21/15 A3023 RMK A01 T02050147  RH  070%=      5-min Rain = 0
KPD1 140714Z 04010KT 20/15 A3023 RMK A01 T02040147  RH  070%=      5-min Rain = 0
KPD1 140715Z 04008KT 20/15 A3022 RMK A01 T02040147  RH  070%=      5-min Rain = 0
KPD1 140716Z 04008G13KT 20/15 A3022 RMK A01 T02040147  RH  070%=      5-min Rain = 0
KPD1 140717Z 05012G17KT 20/15 A3023 RMK A01 T02030145  RH  070%=      5-min Rain = 0
KPD1 140718Z 05011G18KT 20/14 A3022 RMK A01 T02020144  RH  069%=      5-min Rain = 0
KPD1 140719Z 05012KT 20/14 A3022 RMK A01 T02020143  RH  069%=      5-min Rain = 0
KPD1 140720Z 06011G16KT 20/14 A3022 RMK A01 T02020143  RH  069%=      5-min Rain = 0
KPD1 140721Z 06011G17KT 20/14 A3022 RMK A01 T02020142  RH  069%=      5-min Rain = 0
KPD1 140722Z 06011G18KT 20/14 A3022 RMK A01 T02010142  RH  068%=      5-min Rain = 0
KPD1 140723Z 06009G16KT 20/14 A3022 RMK A01 T02010141  RH  068%=      5-min Rain = 0
KPD1 140724Z 05012G18KT 20/14 A3022 RMK A01 T02010141  RH  068%=      5-min Rain = 0
KPD1 140725Z 05014G19KT 20/14 A3022 RMK A01 T02010140  RH  068%=      5-min Rain = 0
KPD1 140726Z 05011G18KT 20/14 A3022 RMK A01 T02000140  RH  068%=      5-min Rain = 0
KPD1 140727Z 05009G16KT 20/14 A3022 RMK A01 T02000140  RH  068%=      5-min Rain = 0
KPD1 140728Z 06014G20KT 20/14 A3022 RMK A01 T02000140  RH  068%=      5-min Rain = 0
KPD1 140729Z 05011G17KT 20/14 A3022 RMK A01 T02000139  RH  068%=      5-min Rain = 0
KPD1 140730Z 05009KT 20/14 A3021 RMK A01 T02000139  RH  068%=      5-min Rain = 0
KPD1 140731Z 05013KT 20/14 A3022 RMK A01 T01990139  RH  068%=      5-min Rain = 0
KPD1 140732Z 05014G19KT 20/14 A3021 RMK A01 T01990138  RH  068%=      5-min Rain = 0
KPD1 140733Z 06013G19KT 20/14 A3021 RMK A01 T01990138  RH  068%=      5-min Rain = 0
KPD1 140734Z 06011G17KT 20/14 A3022 RMK A01 T01990138  RH  068%=      5-min Rain = 0
KPD1 140735Z 06012G17KT 20/14 A3021 RMK A01 T01990138  RH  068%=      5-min Rain = 0
KPD1 140736Z 06010G15KT 20/14 A3021 RMK A01 T01980138  RH  068%=      5-min Rain = 0
KPD1 140737Z 06011KT 20/14 A3021 RMK A01 T01980138  RH  068%=      5-min Rain = 0
KPD1 140738Z 05012G17KT 20/14 A3021 RMK A01 T01980138  RH  068%=      5-min Rain = 0
KPD1 140739Z 06012G17KT 20/14 A3021 RMK A01 T01970137  RH  068%=      5-min Rain = 0
KPD1 140740Z 05010G17KT 20/14 A3021 RMK A01 T01970137  RH  068%=      5-min Rain = 0
KPD1 140741Z 06011G16KT 20/14 A3021 RMK A01 T01970137  RH  068%=      5-min Rain = 0
KPD1 140742Z 05010G16KT 20/14 A3021 RMK A01 T01960137  RH  068%=      5-min Rain = 0
KPD1 140743Z 05012G19KT 20/14 A3021 RMK A01 T01960137  RH  069%=      5-min Rain = 0
KPD1 140744Z 05008KT 20/14 A3021 RMK A01 T01960138  RH  069%=      5-min Rain = 0
KPD1 140745Z 05009KT 20/14 A3021 RMK A01 T01950138  RH  069%=      5-min Rain = 0
KPD1 140746Z 05009KT 20/14 A3021 RMK A01 T01950138  RH  070%=      5-min Rain = 0
KPD1 140747Z 04006KT 19/14 A3021 RMK A01 T01940138  RH  070%=      5-min Rain = 0
KPD1 140748Z 05009KT 19/14 A3021 RMK A01 T01940139  RH  070%=      5-min Rain = 0
KPD1 140749Z 05009G14KT 19/14 A3021 RMK A01 T01940138  RH  070%=      5-min Rain = 0
KPD1 140750Z 05009G16KT 19/14 A3021 RMK A01 T01940138  RH  070%=      5-min Rain = 0
KPD1 140751Z 04009KT 19/14 A3021 RMK A01 T01940137  RH  070%=      5-min Rain = 0
KPD1 140752Z 04011G18KT 19/14 A3021 RMK A01 T01940137  RH  070%=      5-min Rain = 0
KPD1 140753Z 05012G19KT 19/14 A3022 RMK A01 T01940137  RH  070%=      5-min Rain = 0
KPD1 140754Z 06013G18KT 19/14 A3022 RMK A01 T01940136  RH  069%=      5-min Rain = 0
KPD1 140755Z 05015G20KT 19/14 A3022 RMK A01 T01940135  RH  069%=      5-min Rain = 0
KPD1 140756Z 04016G23KT 19/13 A3022 RMK A01 T01940134  RH  068%=      5-min Rain = 0
KPD1 140757Z 05015G24KT 19/13 A3022 RMK A01 T01940134  RH  068%=      5-min Rain = 0
KPD1 140758Z 04013G19KT 19/13 A3022 RMK A01 T01940134  RH  068%=      5-min Rain = 0
KPD1 140759Z 04009G14KT 19/13 A3022 RMK A01 T01940133  RH  068%=      5-min Rain = 0
KPD1 140800Z 05014G21KT 19/13 A3022 RMK A01 T01940133  RH  068%=      5-min Rain = 0
KPD1 140801Z 05013G21KT 19/13 A3021 RMK A01 T01940132  RH  067%=      5-min Rain = 0
KPD1 140802Z 05010G16KT 19/13 A3021 RMK A01 T01940132  RH  067%=      5-min Rain = 0
KPD1 140803Z 04007KT 19/13 A3021 RMK A01 T01940132  RH  067%=      5-min Rain = 0
KPD1 140804Z 04008G15KT 19/13 A3021 RMK A01 T01940132  RH  068%=      5-min Rain = 0
KPD1 140805Z 05009G15KT 19/13 A3021 RMK A01 T01930132  RH  068%=      5-min Rain = 0
KPD1 140806Z 05013G18KT 19/13 A3022 RMK A01 T01930131  RH  067%=      5-min Rain = 0
KPD1 140807Z 05013G18KT 19/13 A3022 RMK A01 T01930131  RH  067%=      5-min Rain = 0
KPD1 140808Z 04011G18KT 19/13 A3022 RMK A01 T01930131  RH  067%=      5-min Rain = 0
KPD1 140809Z 05009KT 19/13 A3022 RMK A01 T01930131  RH  067%=      5-min Rain = 0
KPD1 140810Z 04008G13KT 19/13 A3022 RMK A01 T01930132  RH  068%=      5-min Rain = 0
KPD1 140811Z 04011KT 19/13 A3022 RMK A01 T01920131  RH  068%=      5-min Rain = 0
KPD1 140812Z 05010KT 19/13 A3022 RMK A01 T01920131  RH  068%=      5-min Rain = 0
KPD1 140813Z 03009KT 19/13 A3022 RMK A01 T01920131  RH  068%=      5-min Rain = 0
KPD1 140814Z 05006KT 19/13 A3022 RMK A01 T01910131  RH  068%=      5-min Rain = 0
KPD1 140815Z 06006G11KT 19/13 A3022 RMK A01 T01900131  RH  068%=      5-min Rain = 0
KPD1 140816Z 05007KT 19/13 A3022 RMK A01 T01900131  RH  069%=      5-min Rain = 0
KPD1 140817Z 06007G12KT 19/13 A3022 RMK A01 T01900131  RH  068%=      5-min Rain = 0
KPD1 140818Z 06007G13KT 19/13 A3022 RMK A01 T01900131  RH  069%=      5-min Rain = 0
KPD1 140819Z 06006KT 19/13 A3022 RMK A01 T01900131  RH  069%=      5-min Rain = 0
KPD1 140820Z 06009G15KT 19/13 A3022 RMK A01 T01890131  RH  069%=      5-min Rain = 0
KPD1 140821Z 05004KT 19/13 A3022 RMK A01 T01900132  RH  069%=      5-min Rain = 0
KPD1 140822Z 05006KT 19/13 A3022 RMK A01 T01900132  RH  069%=      5-min Rain = 0
KPD1 140823Z 06008KT 19/13 A3022 RMK A01 T01900133  RH  070%=      5-min Rain = 0
KPD1 140824Z 07005G10KT 19/13 A3022 RMK A01 T01890132  RH  070%=      5-min Rain = 0
KPD1 140825Z 06006KT 19/13 A3022 RMK A01 T01890132  RH  070%=      5-min Rain = 0
KPD1 140826Z 05006KT 19/13 A3022 RMK A01 T01880133  RH  070%=      5-min Rain = 0
KPD1 140827Z 07007KT 19/13 A3022 RMK A01 T01880132  RH  070%=      5-min Rain = 0
KPD1 140828Z 07005KT 19/13 A3021 RMK A01 T01880132  RH  070%=      5-min Rain = 0
KPD1 140829Z 06006KT 19/13 A3021 RMK A01 T01880132  RH  070%=      5-min Rain = 0
KPD1 140830Z 07007KT 19/13 A3021 RMK A01 T01880132  RH  070%=      5-min Rain = 0
KPD1 140831Z 08008G14KT 19/13 A3021 RMK A01 T01870131  RH  070%=      5-min Rain = 0
KPD1 140832Z 07006G12KT 19/13 A3021 RMK A01 T01870131  RH  070%=      5-min Rain = 0
KPD1 140833Z 08008KT 19/13 A3022 RMK A01 T01870131  RH  070%=      5-min Rain = 0
KPD1 140834Z 09007G13KT 19/13 A3022 RMK A01 T01870131  RH  070%=      5-min Rain = 0
KPD1 140835Z 08010KT 19/13 A3022 RMK A01 T01870130  RH  069%=      5-min Rain = 0
KPD1 140836Z 07003KT 19/13 A3022 RMK A01 T01870129  RH  069%=      5-min Rain = 0
KPD1 140837Z 08008G14KT 19/13 A3022 RMK A01 T01870129  RH  069%=      5-min Rain = 0
KPD1 140838Z 07012G17KT 19/13 A3022 RMK A01 T01870127  RH  068%=      5-min Rain = 0
KPD1 140839Z 08010KT 19/13 A3021 RMK A01 T01890127  RH  068%=      5-min Rain = 0
KPD1 140840Z 08007KT 19/13 A3021 RMK A01 T01890128  RH  068%=      5-min Rain = 0
KPD1 140841Z 07007G13KT 19/13 A3021 RMK A01 T01890128  RH  068%=      5-min Rain = 0
KPD1 140842Z 08007KT 19/13 A3022 RMK A01 T01890128  RH  068%=      5-min Rain = 0
KPD1 140843Z 08007KT 19/13 A3022 RMK A01 T01890128  RH  068%=      5-min Rain = 0
KPD1 140844Z 07006KT 19/13 A3022 RMK A01 T01880127  RH  068%=      5-min Rain = 0
KPD1 140845Z 08006KT 19/13 A3022 RMK A01 T01880127  RH  068%=      5-min Rain = 0
KPD1 140846Z 08005KT 19/13 A3022 RMK A01 T01880127  RH  068%=      5-min Rain = 0
KPD1 140847Z 08007KT 19/13 A3022 RMK A01 T01880127  RH  068%=      5-min Rain = 0
KPD1 140848Z 09006G12KT 19/13 A3022 RMK A01 T01880126  RH  067%=      5-min Rain = 0
KPD1 140849Z 08004KT 19/13 A3022 RMK A01 T01880126  RH  067%=      5-min Rain = 0
KPD1 140850Z 07009KT 19/13 A3022 RMK A01 T01880126  RH  067%=      5-min Rain = 0
KPD1 140851Z 07005KT 19/13 A3022 RMK A01 T01880125  RH  067%=      5-min Rain = 0
KPD1 140852Z 08004KT 19/13 A3023 RMK A01 T01880125  RH  067%=      5-min Rain = 0
KPD1 140853Z 06005KT 19/13 A3023 RMK A01 T01880125  RH  067%=      5-min Rain = 0
KPD1 140854Z 06007KT 19/13 A3023 RMK A01 T01880125  RH  067%=      5-min Rain = 0
KPD1 140855Z 07007KT 19/13 A3023 RMK A01 T01880126  RH  067%=      5-min Rain = 0
KPD1 140856Z 09004KT 19/13 A3023 RMK A01 T01880126  RH  067%=      5-min Rain = 0
KPD1 140857Z 08004KT 19/13 A3023 RMK A01 T01880126  RH  067%=      5-min Rain = 0
KPD1 140858Z 07003KT 19/13 A3023 RMK A01 T01870125  RH  067%=      5-min Rain = 0
KPD1 140859Z 05004KT 19/13 A3024 RMK A01 T01870126  RH  067%=      5-min Rain = 0
KPD1 140900Z 06007KT 19/13 A3024 RMK A01 T01870125  RH  067%=      5-min Rain = 0
KPD1 140901Z 04006KT 19/13 A3023 RMK A01 T01880125  RH  067%=      5-min Rain = 0
KPD1 140902Z 06008KT 19/12 A3024 RMK A01 T01880124  RH  066%=      5-min Rain = 0
KPD1 140903Z 05007KT 19/12 A3024 RMK A01 T01890124  RH  066%=      5-min Rain = 0
KPD1 140904Z 05006KT 19/12 A3024 RMK A01 T01890124  RH  066%=      5-min Rain = 0
KPD1 140905Z 04007KT 19/13 A3024 RMK A01 T01890125  RH  066%=      5-min Rain = 0
KPD1 140906Z 03007KT 19/13 A3024 RMK A01 T01890125  RH  066%=      5-min Rain = 0
KPD1 140907Z 03007KT 19/13 A3024 RMK A01 T01890125  RH  066%=      5-min Rain = 0
KPD1 140908Z 03006KT 19/13 A3024 RMK A01 T01900125  RH  066%=      5-min Rain = 0
KPD1 140909Z 03007G12KT 19/13 A3024 RMK A01 T01900125  RH  066%=      5-min Rain = 0
KPD1 140910Z 02007KT 19/12 A3024 RMK A01 T01900124  RH  065%=      5-min Rain = 0
KPD1 140911Z 04008KT 19/12 A3024 RMK A01 T01900124  RH  065%=      5-min Rain = 0
KPD1 140912Z 03007KT 19/12 A3024 RMK A01 T01900124  RH  065%=      5-min Rain = 0
KPD1 140913Z 03008KT 19/12 A3024 RMK A01 T01910124  RH  065%=      5-min Rain = 0
KPD1 140914Z 03007KT 19/12 A3024 RMK A01 T01910124  RH  065%=      5-min Rain = 0
KPD1 140915Z 02006KT 19/12 A3024 RMK A01 T01910123  RH  065%=      5-min Rain = 0
KPD1 140916Z 03004KT 19/12 A3024 RMK A01 T01910123  RH  065%=      5-min Rain = 0
KPD1 140917Z 03007KT 19/12 A3025 RMK A01 T01910123  RH  065%=      5-min Rain = 0
KPD1 140918Z 03006KT 19/12 A3024 RMK A01 T01910123  RH  065%=      5-min Rain = 0
KPD1 140919Z 03008KT 19/12 A3024 RMK A01 T01910123  RH  064%=      5-min Rain = 0
KPD1 140920Z 03006KT 19/12 A3024 RMK A01 T01920123  RH  064%=      5-min Rain = 0
KPD1 140921Z 03008KT 19/12 A3024 RMK A01 T01920123  RH  064%=      5-min Rain = 0
KPD1 140922Z 03009KT 19/12 A3024 RMK A01 T01920123  RH  064%=      5-min Rain = 0
KPD1 140923Z 03009KT 19/12 A3024 RMK A01 T01920123  RH  064%=      5-min Rain = 0
KPD1 140924Z 02008G14KT 19/12 A3024 RMK A01 T01930123  RH  064%=      5-min Rain = 0
KPD1 140925Z 03008G14KT 19/12 A3024 RMK A01 T01930123  RH  064%=      5-min Rain = 0
KPD1 140926Z 03008KT 19/12 A3024 RMK A01 T01930123  RH  064%=      5-min Rain = 0
KPD1 140927Z 03008KT 19/12 A3024 RMK A01 T01930122  RH  064%=      5-min Rain = 0
KPD1 140928Z 03008KT 19/12 A3024 RMK A01 T01930123  RH  064%=      5-min Rain = 0
KPD1 140929Z 03009KT 19/12 A3024 RMK A01 T01930123  RH  064%=      5-min Rain = 0
KPD1 140930Z 03007G12KT 19/12 A3024 RMK A01 T01930123  RH  064%=      5-min Rain = 0
KPD1 140931Z 04007KT 19/12 A3024 RMK A01 T01930123  RH  064%=      5-min Rain = 0
KPD1 140932Z 04008KT 19/12 A3024 RMK A01 T01940123  RH  064%=      5-min Rain = 0
KPD1 140933Z 03008KT 19/12 A3024 RMK A01 T01940123  RH  063%=      5-min Rain = 0
KPD1 140934Z 02008KT 19/12 A3024 RMK A01 T01940123  RH  063%=      5-min Rain = 0
KPD1 140935Z 03010KT 19/12 A3024 RMK A01 T01940122  RH  063%=      5-min Rain = 0
KPD1 140936Z 03007KT 19/12 A3024 RMK A01 T01940123  RH  063%=      5-min Rain = 0
KPD1 140937Z 03007KT 19/12 A3024 RMK A01 T01940122  RH  063%=      5-min Rain = 0
KPD1 140938Z 02009KT 20/12 A3024 RMK A01 T01950123  RH  063%=      5-min Rain = 0
KPD1 140939Z 03009KT 19/12 A3024 RMK A01 T01940122  RH  063%=      5-min Rain = 0
KPD1 140940Z 03007KT 20/12 A3024 RMK A01 T01950122  RH  063%=      5-min Rain = 0
KPD1 140941Z 03005KT 20/12 A3024 RMK A01 T01950122  RH  063%=      5-min Rain = 0
KPD1 140942Z 03006KT 20/12 A3024 RMK A01 T01950123  RH  063%=      5-min Rain = 0
KPD1 140943Z 04007KT 20/12 A3024 RMK A01 T01950123  RH  063%=      5-min Rain = 0
KPD1 140944Z 03006KT 20/12 A3024 RMK A01 T01950123  RH  063%=      5-min Rain = 0
KPD1 140945Z 03006KT 20/12 A3024 RMK A01 T01950123  RH  063%=      5-min Rain = 0
KPD1 140946Z 02006KT 20/12 A3024 RMK A01 T01950123  RH  063%=      5-min Rain = 0
KPD1 140947Z 02009KT 20/12 A3024 RMK A01 T01950123  RH  063%=      5-min Rain = 0
KPD1 140948Z 02008KT 20/12 A3024 RMK A01 T01950123  RH  063%=      5-min Rain = 0
KPD1 140949Z 03007KT 20/12 A3024 RMK A01 T01950123  RH  063%=      5-min Rain = 0
KPD1 140950Z 01006KT 20/12 A3024 RMK A01 T01950123  RH  063%=      5-min Rain = 0
KPD1 140951Z 02008KT 20/12 A3024 RMK A01 T01950123  RH  063%=      5-min Rain = 0
KPD1 140952Z 02011KT 20/12 A3024 RMK A01 T01950123  RH  063%=      5-min Rain = 0
KPD1 140953Z 03009KT 20/12 A3024 RMK A01 T01950122  RH  063%=      5-min Rain = 0
KPD1 140954Z 02009KT 20/12 A3024 RMK A01 T01950123  RH  063%=      5-min Rain = 0
KPD1 140955Z 02009KT 20/12 A3024 RMK A01 T01950123  RH  063%=      5-min Rain = 0
KPD1 140956Z 02010KT 20/12 A3024 RMK A01 T01950123  RH  063%=      5-min Rain = 0
KPD1 140957Z 02010KT 20/12 A3024 RMK A01 T01950124  RH  063%=      5-min Rain = 0
KPD1 140958Z 01008G13KT 20/12 A3024 RMK A01 T01950123  RH  063%=      5-min Rain = 0
KPD1 140959Z 02007KT 20/12 A3025 RMK A01 T01950123  RH  063%=      5-min Rain = 0
KPD1 141000Z 02006G12KT 20/12 A3025 RMK A01 T01950124  RH  063%=      5-min Rain = 0
KPD1 141001Z 02007KT 20/12 A3025 RMK A01 T01950124  RH  064%=      5-min Rain = 0
KPD1 141002Z 02007G12KT 20/12 A3025 RMK A01 T01950124  RH  064%=      5-min Rain = 0
KPD1 141003Z 01009KT 20/13 A3025 RMK A01 T01950125  RH  064%=      5-min Rain = 0
KPD1 141004Z 03009KT 19/12 A3025 RMK A01 T01940124  RH  064%=      5-min Rain = 0
KPD1 141005Z 01009G14KT 20/13 A3025 RMK A01 T01950125  RH  064%=      5-min Rain = 0
KPD1 141006Z 02012G18KT 19/12 A3025 RMK A01 T01940124  RH  064%=      5-min Rain = 0
KPD1 141007Z 02013KT 19/12 A3025 RMK A01 T01940123  RH  063%=      5-min Rain = 0
KPD1 141008Z 02010KT 20/12 A3026 RMK A01 T01950123  RH  063%=      5-min Rain = 0
KPD1 141009Z 02010G15KT 20/12 A3026 RMK A01 T01950124  RH  063%=      5-min Rain = 0
KPD1 141010Z 01011KT 20/12 A3026 RMK A01 T01950124  RH  063%=      5-min Rain = 0
KPD1 141011Z 02008KT 20/12 A3026 RMK A01 T01960124  RH  063%=      5-min Rain = 0
KPD1 141012Z 02011KT 20/12 A3026 RMK A01 T01960124  RH  063%=      5-min Rain = 0
KPD1 141013Z 02010G16KT 20/12 A3026 RMK A01 T01950123  RH  063%=      5-min Rain = 0
KPD1 141014Z 02008G13KT 20/12 A3026 RMK A01 T01960124  RH  063%=      5-min Rain = 0
KPD1 141015Z 03010KT 20/12 A3026 RMK A01 T01960124  RH  063%=      5-min Rain = 0
KPD1 141016Z 02006KT 20/13 A3026 RMK A01 T01960125  RH  063%=      5-min Rain = 0
KPD1 141017Z 02007KT 20/13 A3026 RMK A01 T01950125  RH  064%=      5-min Rain = 0
KPD1 141018Z 02009KT 20/13 A3026 RMK A01 T01950125  RH  064%=      5-min Rain = 0
KPD1 141019Z 02008G13KT 20/12 A3026 RMK A01 T01950124  RH  063%=      5-min Rain = 0
KPD1 141020Z 02007KT 20/12 A3026 RMK A01 T01950124  RH  063%=      5-min Rain = 0
KPD1 141021Z 01006KT 20/13 A3026 RMK A01 T01960125  RH  064%=      5-min Rain = 0
KPD1 141022Z 01007G12KT 20/13 A3026 RMK A01 T01950125  RH  064%=      5-min Rain = 0
KPD1 141023Z 02008KT 20/13 A3026 RMK A01 T01950125  RH  064%=      5-min Rain = 0
KPD1 141024Z 01008KT 19/13 A3026 RMK A01 T01940125  RH  064%=      5-min Rain = 0
KPD1 141025Z 01007KT 19/13 A3026 RMK A01 T01940125  RH  065%=      5-min Rain = 0
KPD1 141026Z 02008KT 19/13 A3026 RMK A01 T01930125  RH  065%=      5-min Rain = 0
KPD1 141027Z 03007G12KT 19/13 A3026 RMK A01 T01930126  RH  065%=      5-min Rain = 0
KPD1 141028Z 02008KT 19/13 A3026 RMK A01 T01930125  RH  065%=      5-min Rain = 0
KPD1 141029Z 03009KT 19/13 A3026 RMK A01 T01930125  RH  065%=      5-min Rain = 0
KPD1 141030Z 02007KT 19/13 A3026 RMK A01 T01920126  RH  065%=      5-min Rain = 0
KPD1 141031Z 02009KT 19/13 A3026 RMK A01 T01910126  RH  066%=      5-min Rain = 0
KPD1 141032Z 02007KT 19/13 A3026 RMK A01 T01910125  RH  066%=      5-min Rain = 0
KPD1 141033Z 01008KT 19/13 A3026 RMK A01 T01910126  RH  066%=      5-min Rain = 0
KPD1 141034Z 01008KT 19/13 A3026 RMK A01 T01910125  RH  066%=      5-min Rain = 0
KPD1 141035Z 01010KT 19/13 A3026 RMK A01 T01900125  RH  066%=      5-min Rain = 0
KPD1 141036Z 00012KT 19/13 A3027 RMK A01 T01910126  RH  066%=      5-min Rain = 0
KPD1 141037Z 01011KT 19/13 A3027 RMK A01 T01900127  RH  066%=      5-min Rain = 0
KPD1 141038Z 00012KT 19/13 A3027 RMK A01 T01890127  RH  067%=      5-min Rain = 0
KPD1 141039Z 36010KT 19/13 A3027 RMK A01 T01880126  RH  067%=      5-min Rain = 0
KPD1 141040Z 36010KT 19/13 A3027 RMK A01 T01870126  RH  068%=      5-min Rain = 0
KPD1 141041Z 00006G11KT 19/13 A3027 RMK A01 T01870127  RH  068%=      5-min Rain = 0
KPD1 141042Z 36011KT 19/13 A3027 RMK A01 T01880127  RH  068%=      5-min Rain = 0
KPD1 141043Z 35010KT 19/13 A3027 RMK A01 T01870126  RH  068%=      5-min Rain = 0
KPD1 141044Z 35011KT 19/13 A3027 RMK A01 T01870127  RH  068%=      5-min Rain = 0
KPD1 141045Z 35012KT 19/13 A3027 RMK A01 T01870128  RH  068%=      5-min Rain = 0
KPD1 141046Z 35011KT 19/13 A3027 RMK A01 T01870128  RH  068%=      5-min Rain = 0
KPD1 141047Z 35012KT 19/13 A3027 RMK A01 T01860127  RH  069%=      5-min Rain = 0
KPD1 141048Z 00015G21KT 19/13 A3028 RMK A01 T01860127  RH  069%=      5-min Rain = 0
KPD1 141049Z 35010KT 19/13 A3028 RMK A01 T01860127  RH  069%=      5-min Rain = 0
KPD1 141050Z 36011KT 19/13 A3028 RMK A01 T01860127  RH  069%=      5-min Rain = 0
KPD1 141051Z 35013G19KT 19/13 A3027 RMK A01 T01860128  RH  069%=      5-min Rain = 0
KPD1 141052Z 36015G21KT 19/13 A3027 RMK A01 T01860128  RH  069%=      5-min Rain = 0
KPD1 141053Z 36015KT 19/13 A3027 RMK A01 T01860127  RH  068%=      5-min Rain = 0
KPD1 141054Z 35014KT 19/13 A3027 RMK A01 T01860127  RH  069%=      5-min Rain = 0
KPD1 141055Z 35014KT 19/13 A3027 RMK A01 T01860128  RH  069%=      5-min Rain = 0
KPD1 141056Z 35010G15KT 19/13 A3027 RMK A01 T01860128  RH  069%=      5-min Rain = 0
KPD1 141057Z 35009G14KT 19/13 A3027 RMK A01 T01860128  RH  069%=      5-min Rain = 0
KPD1 141058Z 00011G16KT 19/13 A3027 RMK A01 T01850127  RH  069%=      5-min Rain = 0
KPD1 141059Z 35012KT 19/13 A3028 RMK A01 T01850128  RH  069%=      5-min Rain = 0
KPD1 141100Z 34012G17KT 19/13 A3028 RMK A01 T01850128  RH  069%=      5-min Rain = 0
KPD1 141101Z 35009KT 19/13 A3027 RMK A01 T01850127  RH  069%=      5-min Rain = 0
KPD1 141102Z 00003KT 19/13 A3026 RMK A01 T01850127  RH  069%=      5-min Rain = 0
KPD1 141103Z 35004KT 19/13 A3026 RMK A01 T01850126  RH  069%=      5-min Rain = 0
KPD1 141104Z 01006KT 19/13 A3026 RMK A01 T01860126  RH  068%=      5-min Rain = 0
KPD1 141105Z 00009KT 19/13 A3027 RMK A01 T01870126  RH  068%=      5-min Rain = 0
KPD1 141106Z 36012KT 19/13 A3028 RMK A01 T01880126  RH  067%=      5-min Rain = 0
KPD1 141107Z 36014KT 19/13 A3028 RMK A01 T01890126  RH  067%=      5-min Rain = 0
KPD1 141108Z 01010G15KT 19/13 A3028 RMK A01 T01890126  RH  067%=      5-min Rain = 0
KPD1 141109Z 01004KT 19/13 A3027 RMK A01 T01890126  RH  067%=      5-min Rain = 0
KPD1 141110Z 01005KT 19/13 A3027 RMK A01 T01890127  RH  067%=      5-min Rain = 0
KPD1 141111Z 01007G12KT 19/13 A3027 RMK A01 T01890126  RH  067%=      5-min Rain = 0
KPD1 141112Z 01008KT 19/13 A3027 RMK A01 T01890125  RH  066%=      5-min Rain = 0
KPD1 141113Z 35009KT 19/13 A3027 RMK A01 T01890126  RH  066%=      5-min Rain = 0
KPD1 141114Z 00013KT 19/13 A3027 RMK A01 T01900126  RH  067%=      5-min Rain = 0
KPD1 141115Z 35010KT 19/13 A3027 RMK A01 T01890126  RH  067%=      5-min Rain = 0
KPD1 141116Z 00011KT 19/13 A3026 RMK A01 T01890126  RH  067%=      5-min Rain = 0
KPD1 141117Z 01009KT 19/13 A3026 RMK A01 T01880126  RH  067%=      5-min Rain = 0
KPD1 141118Z 01011G19KT 19/13 A3026 RMK A01 T01880126  RH  067%=      5-min Rain = 0
KPD1 141119Z 01008KT 19/13 A3026 RMK A01 T01890125  RH  066%=      5-min Rain = 0
KPD1 141120Z 03006KT 19/13 A3026 RMK A01 T01890125  RH  066%=      5-min Rain = 0
KPD1 141121Z 02005KT 19/13 A3026 RMK A01 T01890125  RH  066%=      5-min Rain = 0
KPD1 141122Z 01006KT 19/12 A3026 RMK A01 T01900124  RH  066%=      5-min Rain = 0
KPD1 141123Z 36005KT 19/13 A3026 RMK A01 T01910125  RH  065%=      5-min Rain = 0
KPD1 141124Z 00007KT 19/13 A3027 RMK A01 T01920125  RH  065%=      5-min Rain = 0
KPD1 141125Z 36006KT 19/12 A3027 RMK A01 T01920124  RH  065%=      5-min Rain = 0
KPD1 141126Z 02003G8KT 19/13 A3026 RMK A01 T01930125  RH  065%=      5-min Rain = 0
KPD1 141127Z 01006KT 19/12 A3027 RMK A01 T01930124  RH  064%=      5-min Rain = 0
KPD1 141128Z 34006KT 19/12 A3026 RMK A01 T01930123  RH  064%=      5-min Rain = 0
KPD1 141129Z 02004KT 19/12 A3026 RMK A01 T01940123  RH  063%=      5-min Rain = 0
KPD1 141130Z 00004KT 20/12 A3026 RMK A01 T01950122  RH  063%=      5-min Rain = 0
KPD1 141131Z 02005KT 20/12 A3026 RMK A01 T01960122  RH  062%=      5-min Rain = 0
KPD1 141132Z 03007KT 20/12 A3026 RMK A01 T01970121  RH  062%=      5-min Rain = 0
KPD1 141133Z 02006KT 20/12 A3026 RMK A01 T01980121  RH  061%=      5-min Rain = 0
KPD1 141134Z 03003KT 20/12 A3026 RMK A01 T01980122  RH  061%=      5-min Rain = 0
KPD1 141135Z 03007G12KT 20/12 A3026 RMK A01 T01990122  RH  061%=      5-min Rain = 0
KPD1 141136Z 03006G13KT 20/12 A3026 RMK A01 T02000121  RH  060%=      5-min Rain = 0
KPD1 141137Z 02008KT 20/12 A3026 RMK A01 T02010121  RH  060%=      5-min Rain = 0
KPD1 141138Z 01005KT 20/12 A3026 RMK A01 T02010121  RH  060%=      5-min Rain = 0
KPD1 141139Z 01005KT 20/12 A3026 RMK A01 T02010121  RH  060%=      5-min Rain = 0
KPD1 141140Z 01007KT 20/12 A3026 RMK A01 T02010121  RH  060%=      5-min Rain = 0
KPD1 141141Z 00006KT 20/12 A3026 RMK A01 T02020121  RH  060%=      5-min Rain = 0
KPD1 141142Z 35007KT 20/12 A3027 RMK A01 T02020122  RH  060%=      5-min Rain = 0
KPD1 141143Z 35007KT 20/12 A3027 RMK A01 T02010121  RH  060%=      5-min Rain = 0
KPD1 141144Z 35006KT 20/12 A3027 RMK A01 T02010122  RH  060%=      5-min Rain = 0
KPD1 141145Z 34006KT 20/12 A3027 RMK A01 T02010122  RH  061%=      5-min Rain = 0
KPD1 141146Z 34005KT 20/12 A3027 RMK A01 T02000122  RH  061%=      5-min Rain = 0
KPD1 141147Z 34006KT 20/12 A3027 RMK A01 T01990122  RH  061%=      5-min Rain = 0
KPD1 141148Z 33005KT 20/12 A3027 RMK A01 T02000123  RH  061%=      5-min Rain = 0
KPD1 141149Z 34005KT 20/12 A3027 RMK A01 T01990122  RH  061%=      5-min Rain = 0
KPD1 141150Z 34006KT 20/12 A3027 RMK A01 T01990122  RH  061%=      5-min Rain = 0
KPD1 141151Z 34006KT 20/12 A3027 RMK A01 T01990122  RH  061%=      5-min Rain = 0
KPD1 141152Z 34006KT 20/12 A3027 RMK A01 T01990123  RH  061%=      5-min Rain = 0
KPD1 141153Z 33005KT 20/12 A3027 RMK A01 T01980123  RH  062%=      5-min Rain = 0
KPD1 141154Z 34006KT 20/12 A3027 RMK A01 T01980122  RH  062%=      5-min Rain = 0
KPD1 141155Z 34006KT 20/12 A3027 RMK A01 T01980122  RH  061%=      5-min Rain = 0
KPD1 141156Z 34007KT 20/12 A3027 RMK A01 T01980122  RH  061%=      5-min Rain = 0
KPD1 141157Z 34007KT 20/12 A3028 RMK A01 T01980122  RH  062%=      5-min Rain = 0
KPD1 141158Z 33007KT 20/12 A3028 RMK A01 T01980123  RH  062%=      5-min Rain = 0
KPD1 141159Z 34005KT 20/12 A3027 RMK A01 T01980124  RH  063%=      5-min Rain = 0
KPD1 141200Z 34003KT 20/12 A3027 RMK A01 T01970124  RH  063%=      5-min Rain = 0
KPD1 141201Z 35006KT 20/12 A3027 RMK A01 T01970124  RH  063%=      5-min Rain = 0
KPD1 141202Z 35006KT 20/12 A3027 RMK A01 T01960122  RH  062%=      5-min Rain = 0
KPD1 141203Z 02007KT 20/12 A3027 RMK A01 T01970121  RH  061%=      5-min Rain = 0
KPD1 141204Z 04006KT 20/12 A3027 RMK A01 T01990120  RH  060%=      5-min Rain = 0
KPD1 141205Z 03005KT 20/12 A3027 RMK A01 T02010120  RH  059%=      5-min Rain = 0
KPD1 141206Z 03006KT 20/12 A3027 RMK A01 T02020120  RH  059%=      5-min Rain = 0
KPD1 141207Z 04006KT 20/12 A3027 RMK A01 T02030121  RH  059%=      5-min Rain = 0
KPD1 141208Z 03006KT 20/12 A3027 RMK A01 T02040120  RH  058%=      5-min Rain = 0
KPD1 141209Z 02006KT 21/12 A3026 RMK A01 T02050120  RH  058%=      5-min Rain = 0
KPD1 141210Z 04003KT 21/12 A3026 RMK A01 T02050121  RH  059%=      5-min Rain = 0
KPD1 141211Z 04001KT 21/12 A3026 RMK A01 T02050122  RH  059%=      5-min Rain = 0
KPD1 141212Z 01001KT 20/12 A3026 RMK A01 T02040123  RH  059%=      5-min Rain = 0
KPD1 141213Z 35003KT 20/12 A3027 RMK A01 T02030123  RH  060%=      5-min Rain = 0
KPD1 141214Z 36004KT 20/12 A3027 RMK A01 T02020124  RH  060%=      5-min Rain = 0
KPD1 141215Z 35004KT 20/12 A3027 RMK A01 T02010124  RH  061%=      5-min Rain = 0
KPD1 141216Z 34004KT 20/12 A3027 RMK A01 T02000124  RH  061%=      5-min Rain = 0
KPD1 141217Z 33005KT 20/12 A3027 RMK A01 T01990124  RH  062%=      5-min Rain = 0
KPD1 141218Z 33005KT 20/12 A3027 RMK A01 T01990124  RH  062%=      5-min Rain = 0
KPD1 141219Z 33004KT 20/12 A3027 RMK A01 T01990124  RH  062%=      5-min Rain = 0
KPD1 141220Z 33005KT 20/12 A3027 RMK A01 T01980124  RH  062%=      5-min Rain = 0
KPD1 141221Z 33006KT 20/12 A3027 RMK A01 T01990124  RH  062%=      5-min Rain = 0
KPD1 141222Z 34005KT 20/12 A3027 RMK A01 T01990124  RH  062%=      5-min Rain = 0
KPD1 141223Z 35004KT 20/12 A3027 RMK A01 T01980124  RH  062%=      5-min Rain = 0
KPD1 141224Z 35005KT 20/12 A3027 RMK A01 T01980123  RH  062%=      5-min Rain = 0
KPD1 141225Z 35007KT 20/12 A3027 RMK A01 T01990124  RH  062%=      5-min Rain = 0
KPD1 141226Z 35004KT 20/12 A3027 RMK A01 T01980124  RH  062%=      5-min Rain = 0
KPD1 141227Z 36006KT 20/13 A3027 RMK A01 T01990125  RH  063%=      5-min Rain = 0
KPD1 141228Z 35007KT 20/13 A3028 RMK A01 T01990126  RH  063%=      5-min Rain = 0
KPD1 141229Z 35008KT 20/13 A3027 RMK A01 T01990126  RH  063%=      5-min Rain = 0
KPD1 141230Z 35007KT 20/13 A3028 RMK A01 T01990127  RH  063%=      5-min Rain = 0
KPD1 141231Z 34007KT 20/13 A3028 RMK A01 T01980129  RH  064%=      5-min Rain = 0
KPD1 141232Z 34007KT 20/13 A3028 RMK A01 T01980129  RH  065%=      5-min Rain = 0
KPD1 141233Z 34007KT 20/13 A3028 RMK A01 T01960127  RH  064%=      5-min Rain = 0
KPD1 141234Z 34008KT 20/13 A3028 RMK A01 T01970127  RH  064%=      5-min Rain = 0
KPD1 141235Z 35007KT 20/13 A3028 RMK A01 T01970126  RH  064%=      5-min Rain = 0
KPD1 141236Z 34008KT 20/13 A3028 RMK A01 T01970126  RH  063%=      5-min Rain = 0
KPD1 141237Z 34006KT 20/13 A3028 RMK A01 T01980127  RH  064%=      5-min Rain = 0
KPD1 141238Z 35006KT 20/13 A3028 RMK A01 T01980128  RH  064%=      5-min Rain = 0
KPD1 141239Z 34006KT 20/13 A3028 RMK A01 T01980128  RH  064%=      5-min Rain = 0
KPD1 141240Z 35006KT 20/13 A3028 RMK A01 T01970129  RH  065%=      5-min Rain = 0
KPD1 141241Z 35006KT 20/13 A3028 RMK A01 T01970130  RH  065%=      5-min Rain = 0
KPD1 141242Z 34005KT 20/13 A3028 RMK A01 T01960128  RH  065%=      5-min Rain = 0
KPD1 141243Z 00006KT 20/13 A3028 RMK A01 T01960129  RH  065%=      5-min Rain = 0
KPD1 141244Z 36005KT 20/13 A3028 RMK A01 T01960129  RH  065%=      5-min Rain = 0
KPD1 141245Z 36005KT 20/13 A3028 RMK A01 T01960129  RH  065%=      5-min Rain = 0
KPD1 141246Z 00005KT 20/13 A3028 RMK A01 T01960129  RH  065%=      5-min Rain = 0
KPD1 141247Z 00004KT 20/13 A3028 RMK A01 T01960130  RH  066%=      5-min Rain = 0
KPD1 141248Z 36005KT 20/13 A3028 RMK A01 T01950129  RH  065%=      5-min Rain = 0
KPD1 141249Z 35004KT 20/13 A3027 RMK A01 T01950129  RH  065%=      5-min Rain = 0
KPD1 141250Z 35004KT 20/13 A3027 RMK A01 T01950130  RH  066%=      5-min Rain = 0
KPD1 141251Z 35004KT 20/13 A3027 RMK A01 T01950130  RH  066%=      5-min Rain = 0
KPD1 141252Z 35005KT 20/13 A3027 RMK A01 T01950130  RH  066%=      5-min Rain = 0
KPD1 141253Z 34004KT 20/13 A3027 RMK A01 T01950130  RH  066%=      5-min Rain = 0
KPD1 141254Z 35005KT 20/13 A3027 RMK A01 T01950129  RH  066%=      5-min Rain = 0
KPD1 141255Z 35004KT 19/13 A3027 RMK A01 T01940128  RH  065%=      5-min Rain = 0
KPD1 141256Z 35003KT 20/13 A3027 RMK A01 T01950129  RH  066%=      5-min Rain = 0
KPD1 141257Z 34005KT 20/13 A3027 RMK A01 T01950129  RH  066%=      5-min Rain = 0
KPD1 141258Z 34005KT 20/13 A3027 RMK A01 T01950128  RH  065%=      5-min Rain = 0
KPD1 141259Z 34004KT 20/13 A3027 RMK A01 T01950127  RH  065%=      5-min Rain = 0
KPD1 141300Z 35005KT 20/13 A3027 RMK A01 T01960128  RH  065%=      5-min Rain = 0
KPD1 141301Z 33008KT 20/13 A3027 RMK A01 T01960128  RH  065%=      5-min Rain = 0
KPD1 141302Z 33009KT 20/13 A3027 RMK A01 T01960128  RH  065%=      5-min Rain = 0
KPD1 141303Z 33007KT 20/13 A3027 RMK A01 T01970127  RH  064%=      5-min Rain = 0
KPD1 141304Z 33009G15KT 20/13 A3027 RMK A01 T01980128  RH  064%=      5-min Rain = 0
KPD1 141305Z 34010KT 20/13 A3027 RMK A01 T01980127  RH  064%=      5-min Rain = 0
KPD1 141306Z 34009KT 20/13 A3027 RMK A01 T01990128  RH  064%=      5-min Rain = 0
KPD1 141307Z 33007KT 20/13 A3027 RMK A01 T01990128  RH  063%=      5-min Rain = 0
KPD1 141308Z 34008KT 20/13 A3027 RMK A01 T01990128  RH  064%=      5-min Rain = 0
KPD1 141309Z 34008KT 20/13 A3027 RMK A01 T01990129  RH  064%=      5-min Rain = 0
KPD1 141310Z 34006KT 20/13 A3027 RMK A01 T01990129  RH  064%=      5-min Rain = 0
KPD1 141311Z 34006KT 20/13 A3027 RMK A01 T01990129  RH  064%=      5-min Rain = 0
KPD1 141312Z 33005KT 20/13 A3027 RMK A01 T01980129  RH  064%=      5-min Rain = 0
KPD1 141313Z 32006KT 20/13 A3027 RMK A01 T01980129  RH  064%=      5-min Rain = 0
KPD1 141314Z 32004KT 20/13 A3027 RMK A01 T01980129  RH  064%=      5-min Rain = 0
KPD1 141315Z 33005KT 20/13 A3027 RMK A01 T01980129  RH  064%=      5-min Rain = 0
KPD1 141316Z 33005KT 20/13 A3027 RMK A01 T01980129  RH  064%=      5-min Rain = 0
KPD1 141317Z 32003KT 20/13 A3027 RMK A01 T01980129  RH  064%=      5-min Rain = 0
KPD1 141318Z 33003KT 20/13 A3027 RMK A01 T01980129  RH  064%=      5-min Rain = 0
KPD1 141319Z 34002KT 20/13 A3027 RMK A01 T01980129  RH  064%=      5-min Rain = 0
KPD1 141320Z 32002KT 20/13 A3027 RMK A01 T01980129  RH  064%=      5-min Rain = 0
KPD1 141321Z 32002KT 20/13 A3027 RMK A01 T01990130  RH  065%=      5-min Rain = 0
KPD1 141322Z 30002KT 20/13 A3027 RMK A01 T01980129  RH  064%=      5-min Rain = 0
KPD1 141323Z 29001KT 20/13 A3027 RMK A01 T01980130  RH  065%=      5-min Rain = 0
KPD1 141324Z 30002KT 20/13 A3027 RMK A01 T01990131  RH  065%=      5-min Rain = 0
KPD1 141325Z 29003KT 20/13 A3027 RMK A01 T01980131  RH  065%=      5-min Rain = 0
KPD1 141326Z 30003KT 20/13 A3027 RMK A01 T01980131  RH  065%=      5-min Rain = 0
KPD1 141327Z 33000KT 20/13 A3027 RMK A01 T01980131  RH  065%=      5-min Rain = 0
KPD1 141328Z 30001KT 20/13 A3027 RMK A01 T01980131  RH  065%=      5-min Rain = 0
KPD1 141329Z 30001KT 20/13 A3027 RMK A01 T01980131  RH  065%=      5-min Rain = 0
KPD1 141330Z 32003KT 20/13 A3027 RMK A01 T01980131  RH  065%=      5-min Rain = 0
KPD1 141331Z 28002KT 20/13 A3027 RMK A01 T01980130  RH  065%=      5-min Rain = 0
KPD1 141332Z 26001KT 20/13 A3027 RMK A01 T01980131  RH  065%=      5-min Rain = 0
KPD1 141333Z 25002KT 20/13 A3027 RMK A01 T01990132  RH  065%=      5-min Rain = 0
KPD1 141334Z 22002KT 20/13 A3027 RMK A01 T01990132  RH  065%=      5-min Rain = 0
KPD1 141335Z 21003KT 20/13 A3027 RMK A01 T01980132  RH  065%=      5-min Rain = 0
KPD1 141336Z 25002KT 20/13 A3027 RMK A01 T01990132  RH  066%=      5-min Rain = 0
KPD1 141337Z 23003KT 20/13 A3027 RMK A01 T01980133  RH  066%=      5-min Rain = 0
KPD1 141338Z 23002KT 20/13 A3027 RMK A01 T01990133  RH  066%=      5-min Rain = 0
KPD1 141339Z 23002KT 20/13 A3027 RMK A01 T01980133  RH  066%=      5-min Rain = 0
KPD1 141340Z 20003KT 20/13 A3027 RMK A01 T01980133  RH  066%=      5-min Rain = 0
KPD1 141341Z 19003KT 20/13 A3027 RMK A01 T01980133  RH  066%=      5-min Rain = 0
KPD1 141342Z 20003KT 20/13 A3027 RMK A01 T01980133  RH  066%=      5-min Rain = 0
KPD1 141343Z 22003KT 20/14 A3027 RMK A01 T01980135  RH  067%=      5-min Rain = 0
KPD1 141344Z 24002KT 20/13 A3027 RMK A01 T01970134  RH  067%=      5-min Rain = 0
KPD1 141345Z 22001KT 20/14 A3027 RMK A01 T01970135  RH  067%=      5-min Rain = 0
KPD1 141346Z 00000KT 20/14 A3026 RMK A01 T01970135  RH  067%=      5-min Rain = 0
KPD1 141347Z 00000KT 20/14 A3026 RMK A01 T01970135  RH  067%=      5-min Rain = 0
KPD1 141348Z 00000KT 20/13 A3025 RMK A01 T01960134  RH  067%=      5-min Rain = 0
KPD1 141349Z 08001KT 20/14 A3025 RMK A01 T01960136  RH  068%=      5-min Rain = 0
KPD1 141350Z 08002KT 20/14 A3024 RMK A01 T01960136  RH  068%=      5-min Rain = 0
KPD1 141351Z 10004KT 20/14 A3024 RMK A01 T01960136  RH  068%=      5-min Rain = 0
KPD1 141352Z 10004KT 20/14 A3023 RMK A01 T01960137  RH  069%=      5-min Rain = 0
KPD1 141353Z 11004KT 20/14 A3023 RMK A01 T01950136  RH  069%=      5-min Rain = 0
KPD1 141354Z 14005KT 20/14 A3023 RMK A01 T01950136  RH  069%=      5-min Rain = 0
KPD1 141355Z 17005KT 20/14 A3024 RMK A01 T01950136  RH  069%=      5-min Rain = 0
KPD1 141356Z 19006KT 20/14 A3024 RMK A01 T01950136  RH  069%=      5-min Rain = 0
KPD1 141357Z 20006KT 20/14 A3025 RMK A01 T01950136  RH  069%=      5-min Rain = 0
KPD1 141358Z 20007KT 20/14 A3025 RMK A01 T01950135  RH  068%=      5-min Rain = 0
KPD1 141359Z 21008KT 20/13 A3026 RMK A01 T01950134  RH  068%=      5-min Rain = 0
KPD1 141400Z 22009KT 20/13 A3026 RMK A01 T01950134  RH  068%=      5-min Rain = 0
KPD1 141401Z 22009KT 20/13 A3026 RMK A01 T01960134  RH  067%=      5-min Rain = 0
KPD1 141402Z 22009KT 20/13 A3026 RMK A01 T01960133  RH  067%=      5-min Rain = 0
KPD1 141403Z 21008KT 20/13 A3027 RMK A01 T01970132  RH  066%=      5-min Rain = 0
KPD1 141404Z 22007KT 20/13 A3027 RMK A01 T01980132  RH  066%=      5-min Rain = 0
KPD1 141405Z 23007KT 20/13 A3027 RMK A01 T01980132  RH  066%=      5-min Rain = 0
KPD1 141406Z 23006KT 20/13 A3027 RMK A01 T01980133  RH  066%=      5-min Rain = 0
KPD1 141407Z 23006KT 20/13 A3027 RMK A01 T01990133  RH  066%=      5-min Rain = 0
KPD1 141408Z 23006KT 20/13 A3027 RMK A01 T01980133  RH  066%=      5-min Rain = 0
KPD1 141409Z 22003KT 20/13 A3026 RMK A01 T01980133  RH  066%=      5-min Rain = 0
KPD1 141410Z 21003KT 20/13 A3026 RMK A01 T01980134  RH  066%=      5-min Rain = 0
KPD1 141411Z 20004KT 20/13 A3026 RMK A01 T01980134  RH  067%=      5-min Rain = 0
KPD1 141412Z 20004KT 20/14 A3026 RMK A01 T01980135  RH  067%=      5-min Rain = 0
KPD1 141413Z 20005KT 20/14 A3026 RMK A01 T01980135  RH  067%=      5-min Rain = 0
KPD1 141414Z 18004KT 20/14 A3026 RMK A01 T01980135  RH  067%=      5-min Rain = 0
KPD1 141415Z 17006KT 20/14 A3026 RMK A01 T01980135  RH  067%=      5-min Rain = 0
KPD1 141416Z 17006KT 20/14 A3026 RMK A01 T01990135  RH  067%=      5-min Rain = 0
KPD1 141417Z 17006KT 20/13 A3026 RMK A01 T01990134  RH  066%=      5-min Rain = 0
KPD1 141418Z 19005KT 20/13 A3026 RMK A01 T01990134  RH  066%=      5-min Rain = 0
KPD1 141419Z 21006KT 20/13 A3026 RMK A01 T01990133  RH  066%=      5-min Rain = 0
KPD1 141420Z 22007KT 20/13 A3026 RMK A01 T02000134  RH  066%=      5-min Rain = 0
KPD1 141421Z 23008KT 20/13 A3027 RMK A01 T02000133  RH  066%=      5-min Rain = 0
KPD1 141422Z 23008KT 20/13 A3027 RMK A01 T02000133  RH  065%=      5-min Rain = 0
KPD1 141423Z 22008KT 20/13 A3027 RMK A01 T02010132  RH  065%=      5-min Rain = 0
KPD1 141424Z 22007KT 20/13 A3026 RMK A01 T02020131  RH  064%=      5-min Rain = 0
KPD1 141425Z 22005KT 20/13 A3026 RMK A01 T02020132  RH  064%=      5-min Rain = 0
KPD1 141426Z 22002KT 20/13 A3026 RMK A01 T02030131  RH  064%=      5-min Rain = 0
KPD1 141427Z 22003KT 20/13 A3026 RMK A01 T02030132  RH  064%=      5-min Rain = 0
KPD1 141428Z 21002KT 20/13 A3026 RMK A01 T02030132  RH  064%=      5-min Rain = 0
KPD1 141429Z 20002KT 20/13 A3026 RMK A01 T02040133  RH  064%=      5-min Rain = 0
KPD1 141430Z 20004KT 20/13 A3026 RMK A01 T02040133  RH  064%=      5-min Rain = 0
KPD1 141431Z 20006KT 20/13 A3026 RMK A01 T02040132  RH  063%=      5-min Rain = 0
KPD1 141432Z 19004KT 21/13 A3026 RMK A01 T02050131  RH  063%=      5-min Rain = 0
KPD1 141433Z 18004KT 21/13 A3026 RMK A01 T02060132  RH  063%=      5-min Rain = 0
KPD1 141434Z 18004KT 21/13 A3026 RMK A01 T02060132  RH  063%=      5-min Rain = 0
KPD1 141435Z 17003KT 21/13 A3026 RMK A01 T02070131  RH  062%=      5-min Rain = 0
KPD1 141436Z 15003KT 21/13 A3026 RMK A01 T02070132  RH  062%=      5-min Rain = 0
KPD1 141437Z 16004KT 21/13 A3025 RMK A01 T02070132  RH  062%=      5-min Rain = 0
KPD1 141438Z 15004KT 21/13 A3025 RMK A01 T02070132  RH  062%=      5-min Rain = 0
KPD1 141439Z 14004KT 21/13 A3025 RMK A01 T02080131  RH  062%=      5-min Rain = 0
KPD1 141440Z 13004KT 21/13 A3025 RMK A01 T02070131  RH  062%=      5-min Rain = 0
KPD1 141441Z 14003KT 21/13 A3025 RMK A01 T02080132  RH  062%=      5-min Rain = 0
KPD1 141442Z 16004KT 21/13 A3025 RMK A01 T02080133  RH  062%=      5-min Rain = 0
KPD1 141443Z 17004KT 21/13 A3025 RMK A01 T02080132  RH  062%=      5-min Rain = 0
KPD1 141444Z 20004KT 21/13 A3025 RMK A01 T02080132  RH  062%=      5-min Rain = 0
KPD1 141445Z 20003KT 21/13 A3025 RMK A01 T02080132  RH  062%=      5-min Rain = 0
KPD1 141446Z 20003KT 21/13 A3025 RMK A01 T02080131  RH  061%=      5-min Rain = 0
KPD1 141447Z 21003KT 21/13 A3025 RMK A01 T02080132  RH  062%=      5-min Rain = 0
KPD1 141448Z 20004KT 21/13 A3025 RMK A01 T02080133  RH  062%=      5-min Rain = 0
KPD1 141449Z 21004KT 21/13 A3025 RMK A01 T02080132  RH  062%=      5-min Rain = 0
KPD1 141450Z 21004KT 21/13 A3025 RMK A01 T02080132  RH  061%=      5-min Rain = 0
KPD1 141451Z 21005KT 21/13 A3025 RMK A01 T02080131  RH  061%=      5-min Rain = 0
KPD1 141452Z 21004KT 21/13 A3026 RMK A01 T02090131  RH  061%=      5-min Rain = 0
KPD1 141453Z 19004KT 21/13 A3026 RMK A01 T02090131  RH  061%=      5-min Rain = 0
KPD1 141454Z 18003KT 21/13 A3026 RMK A01 T02090131  RH  061%=      5-min Rain = 0
KPD1 141455Z 20004KT 21/13 A3026 RMK A01 T02090131  RH  061%=      5-min Rain = 0
KPD1 141456Z 21006KT 21/13 A3026 RMK A01 T02100131  RH  061%=      5-min Rain = 0
KPD1 141457Z 21006KT 21/13 A3025 RMK A01 T02100131  RH  061%=      5-min Rain = 0
KPD1 141458Z 20005KT 21/13 A3025 RMK A01 T02110131  RH  060%=      5-min Rain = 0
KPD1 141459Z 19005KT 21/13 A3026 RMK A01 T02110131  RH  060%=      5-min Rain = 0
KPD1 141500Z 20004KT 21/13 A3026 RMK A01 T02110132  RH  060%=      5-min Rain = 0
KPD1 141501Z 19004KT 21/13 A3026 RMK A01 T02120131  RH  060%=      5-min Rain = 0
KPD1 141502Z 19004KT 21/13 A3026 RMK A01 T02120132  RH  060%=      5-min Rain = 0
KPD1 141503Z 18004KT 21/13 A3026 RMK A01 T02130132  RH  060%=      5-min Rain = 0
KPD1 141504Z 17005KT 21/13 A3026 RMK A01 T02130132  RH  060%=      5-min Rain = 0
KPD1 141505Z 16004KT 21/13 A3026 RMK A01 T02140132  RH  059%=      5-min Rain = 0
KPD1 141506Z 15003KT 21/13 A3026 RMK A01 T02140132  RH  059%=      5-min Rain = 0
KPD1 141507Z 14002KT 22/13 A3025 RMK A01 T02150132  RH  059%=      5-min Rain = 0
KPD1 141508Z 13001KT 22/13 A3025 RMK A01 T02150132  RH  059%=      5-min Rain = 0
KPD1 141509Z 14002KT 22/13 A3025 RMK A01 T02150130  RH  058%=      5-min Rain = 0
KPD1 141510Z 15002KT 22/13 A3025 RMK A01 T02150130  RH  058%=      5-min Rain = 0
KPD1 141511Z 15001KT 22/13 A3025 RMK A01 T02160131  RH  058%=      5-min Rain = 0
KPD1 141512Z 15002KT 22/13 A3025 RMK A01 T02160130  RH  058%=      5-min Rain = 0
KPD1 141513Z 16001KT 22/13 A3025 RMK A01 T02160130  RH  058%=      5-min Rain = 0
KPD1 141514Z 16003KT 22/13 A3025 RMK A01 T02160131  RH  058%=      5-min Rain = 0
KPD1 141515Z 14002KT 22/13 A3025 RMK A01 T02170129  RH  057%=      5-min Rain = 0
KPD1 141516Z 15003KT 22/13 A3025 RMK A01 T02170130  RH  058%=      5-min Rain = 0
KPD1 141517Z 17003KT 22/13 A3025 RMK A01 T02170130  RH  057%=      5-min Rain = 0
KPD1 141518Z 15004KT 22/13 A3025 RMK A01 T02180131  RH  058%=      5-min Rain = 0
KPD1 141519Z 13004KT 22/13 A3025 RMK A01 T02190130  RH  057%=      5-min Rain = 0
KPD1 141520Z 10006KT 22/13 A3026 RMK A01 T02190131  RH  057%=      5-min Rain = 0
KPD1 141521Z 09008KT 22/13 A3027 RMK A01 T02190132  RH  058%=      5-min Rain = 0
KPD1 141522Z 09008KT 22/13 A3027 RMK A01 T02200132  RH  057%=      5-min Rain = 0
KPD1 141523Z 11006KT 22/13 A3027 RMK A01 T02200130  RH  057%=      5-min Rain = 0
KPD1 141524Z 16002KT 22/13 A3027 RMK A01 T02200131  RH  057%=      5-min Rain = 0
KPD1 141525Z 17003KT 22/13 A3027 RMK A01 T02200130  RH  057%=      5-min Rain = 0
KPD1 141526Z 09003KT 22/13 A3027 RMK A01 T02200129  RH  056%=      5-min Rain = 0
KPD1 141527Z 07005KT 22/13 A3028 RMK A01 T02210130  RH  056%=      5-min Rain = 0
KPD1 141528Z 10003KT 22/13 A3028 RMK A01 T02210130  RH  056%=      5-min Rain = 0
KPD1 141529Z 14003KT 22/13 A3028 RMK A01 T02220130  RH  056%=      5-min Rain = 0
KPD1 141530Z 13005KT 22/13 A3027 RMK A01 T02220130  RH  056%=      5-min Rain = 0
KPD1 141531Z 13002KT 22/13 A3028 RMK A01 T02230128  RH  055%=      5-min Rain = 0
KPD1 141532Z 14001KT 22/13 A3028 RMK A01 T02230129  RH  055%=      5-min Rain = 0
KPD1 141533Z 13000KT 22/13 A3028 RMK A01 T02230129  RH  055%=      5-min Rain = 0
KPD1 141534Z 16003KT 22/13 A3028 RMK A01 T02240128  RH  055%=      5-min Rain = 0
KPD1 141535Z 16003KT 22/13 A3028 RMK A01 T02240128  RH  055%=      5-min Rain = 0
KPD1 141536Z 17004KT 22/13 A3027 RMK A01 T02230129  RH  055%=      5-min Rain = 0
KPD1 141537Z 17005KT 22/13 A3028 RMK A01 T02240130  RH  055%=      5-min Rain = 0
KPD1 141538Z 14003KT 22/13 A3028 RMK A01 T02240129  RH  055%=      5-min Rain = 0
KPD1 141539Z 12004KT 23/13 A3028 RMK A01 T02250130  RH  055%=      5-min Rain = 0
KPD1 141540Z 14004KT 23/13 A3028 RMK A01 T02250129  RH  054%=      5-min Rain = 0
KPD1 141541Z 15006KT 23/13 A3028 RMK A01 T02250129  RH  054%=      5-min Rain = 0
KPD1 141542Z 17006KT 23/13 A3028 RMK A01 T02260129  RH  054%=      5-min Rain = 0
KPD1 141543Z 17005KT 23/13 A3028 RMK A01 T02270130  RH  054%=      5-min Rain = 0
KPD1 141544Z 18004KT 23/13 A3028 RMK A01 T02270129  RH  054%=      5-min Rain = 0
KPD1 141545Z 18001KT 23/13 A3028 RMK A01 T02270128  RH  053%=      5-min Rain = 0
KPD1 141546Z 27001KT 23/13 A3028 RMK A01 T02280129  RH  054%=      5-min Rain = 0
KPD1 141547Z 30002KT 23/13 A3028 RMK A01 T02280127  RH  053%=      5-min Rain = 0
KPD1 141548Z 34004KT 23/13 A3029 RMK A01 T02280128  RH  053%=      5-min Rain = 0
KPD1 141549Z 35007KT 23/13 A303 RMK A01 T02280128  RH  053%=      5-min Rain = 0
KPD1 141550Z 35009KT 23/13 A3031 RMK A01 T02300130  RH  053%=      5-min Rain = 0
KPD1 141551Z 34006KT 23/13 A303 RMK A01 T02310129  RH  053%=      5-min Rain = 0
KPD1 141552Z 31004KT 23/13 A303 RMK A01 T02310129  RH  052%=      5-min Rain = 0
KPD1 141553Z 28002KT 23/13 A3029 RMK A01 T02310128  RH  052%=      5-min Rain = 0
KPD1 141554Z 27003KT 23/13 A3029 RMK A01 T02310129  RH  053%=      5-min Rain = 0
KPD1 141555Z 29003KT 23/13 A3029 RMK A01 T02320129  RH  052%=      5-min Rain = 0
KPD1 141556Z 31003KT 23/13 A3029 RMK A01 T02310128  RH  053%=      5-min Rain = 0
KPD1 141557Z 35004KT 23/13 A303 RMK A01 T02300130  RH  053%=      5-min Rain = 0
KPD1 141558Z 34003KT 23/13 A303 RMK A01 T02300130  RH  053%=      5-min Rain = 0
KPD1 141559Z 34003KT 23/13 A303 RMK A01 T02310131  RH  053%=      5-min Rain = 0
KPD1 141600Z 34004KT 23/13 A303 RMK A01 T02320130  RH  053%=      5-min Rain = 0
KPD1 141601Z 35003KT 23/13 A303 RMK A01 T02310129  RH  052%=      5-min Rain = 0
KPD1 141602Z 36004KT 23/13 A3031 RMK A01 T02310131  RH  053%=      5-min Rain = 0
KPD1 141603Z 00005KT 23/13 A303 RMK A01 T02330132  RH  053%=      5-min Rain = 0
KPD1 141604Z 35003KT 23/13 A303 RMK A01 T02340132  RH  052%=      5-min Rain = 0
KPD1 141605Z 32002KT 24/13 A303 RMK A01 T02350132  RH  052%=      5-min Rain = 0
KPD1 141606Z 32001KT 24/13 A3029 RMK A01 T02360132  RH  052%=      5-min Rain = 0
KPD1 141607Z 30004KT 24/13 A3029 RMK A01 T02360132  RH  052%=      5-min Rain = 0
KPD1 141608Z 31003KT 24/13 A3029 RMK A01 T02370133  RH  052%=      5-min Rain = 0
KPD1 141609Z 30002KT 24/13 A3029 RMK A01 T02370134  RH  052%=      5-min Rain = 0
KPD1 141610Z 31003KT 24/13 A303 RMK A01 T02380133  RH  052%=      5-min Rain = 0
KPD1 141611Z 32004KT 24/13 A303 RMK A01 T02380133  RH  052%=      5-min Rain = 0
KPD1 141612Z 32002KT 24/13 A303 RMK A01 T02380133  RH  052%=      5-min Rain = 0
KPD1 141613Z 33004KT 24/13 A303 RMK A01 T02370133  RH  052%=      5-min Rain = 0
KPD1 141614Z 33003KT 24/13 A303 RMK A01 T02380134  RH  052%=      5-min Rain = 0
KPD1 141615Z 33004KT 24/13 A303 RMK A01 T02390133  RH  051%=      5-min Rain = 0
KPD1 141616Z 33003KT 24/13 A303 RMK A01 T02390132  RH  051%=      5-min Rain = 0
KPD1 141617Z 33003KT 24/13 A3029 RMK A01 T02410134  RH  051%=      5-min Rain = 0
KPD1 141618Z 35004KT 24/13 A3029 RMK A01 T02440133  RH  050%=      5-min Rain = 0
KPD1 141619Z 36005KT 25/14 A3029 RMK A01 T02470135  RH  050%=      5-min Rain = 0
KPD1 141620Z 35003KT 25/13 A3029 RMK A01 T02490134  RH  049%=      5-min Rain = 0
KPD1 141621Z 33002KT 25/14 A3029 RMK A01 T02510135  RH  048%=      5-min Rain = 0
KPD1 141622Z 35003KT 25/14 A3029 RMK A01 T02540137  RH  048%=      5-min Rain = 0
KPD1 141623Z 01005KT 26/14 A3029 RMK A01 T02580138  RH  048%=      5-min Rain = 0
KPD1 141624Z 02005KT 26/14 A3029 RMK A01 T02610139  RH  047%=      5-min Rain = 0
KPD1 141625Z 00006KT 26/14 A3029 RMK A01 T02630139  RH  046%=      5-min Rain = 0
KPD1 141626Z 01006KT 26/14 A3029 RMK A01 T02640138  RH  046%=      5-min Rain = 0
KPD1 141627Z 36008KT 26/14 A3029 RMK A01 T02640138  RH  046%=      5-min Rain = 0
KPD1 141628Z 36007KT 26/14 A3029 RMK A01 T02640137  RH  046%=      5-min Rain = 0
KPD1 141629Z 35005KT 26/14 A3029 RMK A01 T02640137  RH  045%=      5-min Rain = 0
KPD1 141630Z 36006KT 27/14 A3029 RMK A01 T02650138  RH  046%=      5-min Rain = 0
KPD1 141631Z 34004KT 26/14 A3028 RMK A01 T02640135  RH  045%=      5-min Rain = 0
KPD1 141632Z 01004KT 26/14 A3028 RMK A01 T02620135  RH  046%=      5-min Rain = 0
KPD1 141633Z 02003KT 26/14 A3028 RMK A01 T02620136  RH  046%=      5-min Rain = 0
KPD1 141634Z 01004G9KT 26/13 A3029 RMK A01 T02630133  RH  045%=      5-min Rain = 0
KPD1 141635Z 01008KT 26/13 A3029 RMK A01 T02630133  RH  044%=      5-min Rain = 0
KPD1 141636Z 03006KT 26/13 A3029 RMK A01 T02610130  RH  044%=      5-min Rain = 0
KPD1 141637Z 03005KT 26/13 A3029 RMK A01 T02600131  RH  045%=      5-min Rain = 0
KPD1 141638Z 01005KT 26/13 A3029 RMK A01 T02600131  RH  045%=      5-min Rain = 0
KPD1 141639Z 02008KT 26/13 A3029 RMK A01 T02640131  RH  044%=      5-min Rain = 0
KPD1 141640Z 03008KT 27/13 A3029 RMK A01 T02650128  RH  043%=      5-min Rain = 0
KPD1 141641Z 04010KT 26/13 A3029 RMK A01 T02640126  RH  042%=      5-min Rain = 0
KPD1 141642Z 03011KT 26/13 A3029 RMK A01 T02640126  RH  043%=      5-min Rain = 0
KPD1 141643Z 04008KT 26/13 A3029 RMK A01 T02620125  RH  043%=      5-min Rain = 0
KPD1 141644Z 03008KT 26/13 A3029 RMK A01 T02610126  RH  043%=      5-min Rain = 0
KPD1 141645Z 04008KT 26/13 A3029 RMK A01 T02600125  RH  043%=      5-min Rain = 0
KPD1 141646Z 04009G15KT 26/13 A3029 RMK A01 T02580127  RH  044%=      5-min Rain = 0
KPD1 141647Z 05010G16KT 26/12 A3029 RMK A01 T02580123  RH  043%=      5-min Rain = 0
KPD1 141648Z 06009KT 26/12 A3029 RMK A01 T02600122  RH  042%=      5-min Rain = 0
KPD1 141649Z 07009KT 26/12 A3029 RMK A01 T02620122  RH  042%=      5-min Rain = 0
KPD1 141650Z 07007G13KT 26/12 A3028 RMK A01 T02640124  RH  042%=      5-min Rain = 0
KPD1 141651Z 06011KT 27/12 A3028 RMK A01 T02670124  RH  041%=      5-min Rain = 0
KPD1 141652Z 06009KT 27/12 A3028 RMK A01 T02670124  RH  041%=      5-min Rain = 0
KPD1 141653Z 07009KT 27/12 A3028 RMK A01 T02660123  RH  041%=      5-min Rain = 0
KPD1 141654Z 07009KT 27/13 A3028 RMK A01 T02660125  RH  042%=      5-min Rain = 0
KPD1 141655Z 08011KT 27/13 A3028 RMK A01 T02680127  RH  041%=      5-min Rain = 0
KPD1 141656Z 07009KT 27/13 A3028 RMK A01 T02680127  RH  041%=      5-min Rain = 0
KPD1 141657Z 05008G13KT 27/13 A3028 RMK A01 T02690129  RH  042%=      5-min Rain = 0
KPD1 141658Z 03008KT 27/13 A3028 RMK A01 T02700128  RH  041%=      5-min Rain = 0
KPD1 141659Z 02008KT 27/13 A3028 RMK A01 T02690128  RH  042%=      5-min Rain = 0
KPD1 141700Z 02006KT 27/13 A3028 RMK A01 T02690128  RH  042%=      5-min Rain = 0
KPD1 141701Z 03005KT 27/13 A3028 RMK A01 T02680129  RH  042%=      5-min Rain = 0
KPD1 141702Z 04008KT 27/13 A3029 RMK A01 T02700130  RH  042%=      5-min Rain = 0
KPD1 141703Z 04007KT 27/13 A3029 RMK A01 T02700129  RH  042%=      5-min Rain = 0
KPD1 141704Z 06006KT 27/13 A3029 RMK A01 T02690128  RH  042%=      5-min Rain = 0
KPD1 141705Z 01008G14KT 27/13 A3029 RMK A01 T02680130  RH  042%=      5-min Rain = 0
KPD1 141706Z 01010KT 27/13 A3029 RMK A01 T02710129  RH  041%=      5-min Rain = 0
KPD1 141707Z 01007KT 27/13 A3029 RMK A01 T02680127  RH  041%=      5-min Rain = 0
KPD1 141708Z 01006KT 27/13 A3028 RMK A01 T02650127  RH  042%=      5-min Rain = 0
KPD1 141709Z 04008KT 27/13 A3028 RMK A01 T02660129  RH  043%=      5-min Rain = 0
KPD1 141710Z 04009KT 27/13 A3028 RMK A01 T02680129  RH  042%=      5-min Rain = 0
KPD1 141711Z 01009KT 27/13 A3028 RMK A01 T02690129  RH  042%=      5-min Rain = 0
KPD1 141712Z 03006KT 27/13 A3028 RMK A01 T02690130  RH  042%=      5-min Rain = 0
KPD1 141713Z 02006KT 27/13 A3028 RMK A01 T02670126  RH  042%=      5-min Rain = 0
KPD1 141714Z 35005KT 27/13 A3028 RMK A01 T02650129  RH  043%=      5-min Rain = 0
KPD1 141715Z 01007KT 27/13 A3028 RMK A01 T02670131  RH  043%=      5-min Rain = 0
KPD1 141716Z 03006KT 27/13 A3028 RMK A01 T02710132  RH  042%=      5-min Rain = 0
KPD1 141717Z 03005KT 27/13 A3029 RMK A01 T02730133  RH  042%=      5-min Rain = 0
KPD1 141718Z 06003KT 28/13 A3029 RMK A01 T02780134  RH  041%=      5-min Rain = 0
KPD1 141719Z 03006KT 28/13 A3029 RMK A01 T02820132  RH  040%=      5-min Rain = 0
KPD1 141720Z 00006KT 28/13 A3029 RMK A01 T02840132  RH  039%=      5-min Rain = 0
KPD1 141721Z 02010G15KT 28/13 A3029 RMK A01 T02820132  RH  040%=      5-min Rain = 0
KPD1 141722Z 04007KT 28/13 A3028 RMK A01 T02760129  RH  040%=      5-min Rain = 0
KPD1 141723Z 05007KT 27/13 A3028 RMK A01 T02720130  RH  041%=      5-min Rain = 0
KPD1 141724Z 02011KT 27/13 A3028 RMK A01 T02720131  RH  042%=      5-min Rain = 0
KPD1 141725Z 02010KT 27/13 A3028 RMK A01 T02720131  RH  042%=      5-min Rain = 0
KPD1 141726Z 02009KT 27/13 A3028 RMK A01 T02730132  RH  042%=      5-min Rain = 0
KPD1 141727Z 05007KT 27/13 A3028 RMK A01 T02740133  RH  042%=      5-min Rain = 0
KPD1 141728Z 05009KT 27/13 A3028 RMK A01 T02740134  RH  042%=      5-min Rain = 0
KPD1 141729Z 06006KT 27/14 A3028 RMK A01 T02720135  RH  043%=      5-min Rain = 0
KPD1 141730Z 07007KT 27/14 A3027 RMK A01 T02720135  RH  043%=      5-min Rain = 0
KPD1 141731Z 07008KT 27/13 A3027 RMK A01 T02730134  RH  042%=      5-min Rain = 0
KPD1 141732Z 06011KT 27/14 A3027 RMK A01 T02730135  RH  043%=      5-min Rain = 0
KPD1 141733Z 07011KT 27/13 A3027 RMK A01 T02730134  RH  042%=      5-min Rain = 0
KPD1 141734Z 06009KT 27/13 A3027 RMK A01 T02720133  RH  042%=      5-min Rain = 0
KPD1 141735Z 06009KT 27/13 A3027 RMK A01 T02710134  RH  043%=      5-min Rain = 0
KPD1 141736Z 06007G13KT 27/14 A3027 RMK A01 T02740135  RH  042%=      5-min Rain = 0
KPD1 141737Z 04009KT 28/14 A3027 RMK A01 T02770135  RH  041%=      5-min Rain = 0
KPD1 141738Z 04010KT 28/13 A3027 RMK A01 T02780132  RH  041%=      5-min Rain = 0
KPD1 141739Z 03008KT 27/13 A3027 RMK A01 T02730129  RH  041%=      5-min Rain = 0
KPD1 141740Z 06005KT 27/13 A3027 RMK A01 T02710131  RH  042%=      5-min Rain = 0
KPD1 141741Z 03008KT 27/13 A3027 RMK A01 T02710131  RH  042%=      5-min Rain = 0
KPD1 141742Z 03009KT 27/13 A3027 RMK A01 T02720129  RH  041%=      5-min Rain = 0
KPD1 141743Z 04008KT 27/13 A3027 RMK A01 T02720128  RH  041%=      5-min Rain = 0
KPD1 141744Z 03008KT 27/13 A3027 RMK A01 T02740129  RH  041%=      5-min Rain = 0
KPD1 141745Z 03008KT 28/13 A3027 RMK A01 T02750130  RH  041%=      5-min Rain = 0
KPD1 141746Z 02006KT 28/13 A3027 RMK A01 T02750131  RH  041%=      5-min Rain = 0
KPD1 141747Z 03006KT 28/13 A3027 RMK A01 T02750132  RH  041%=      5-min Rain = 0
KPD1 141748Z 04004KT 28/13 A3027 RMK A01 T02770132  RH  041%=      5-min Rain = 0
KPD1 141749Z 03008KT 28/13 A3027 RMK A01 T02780133  RH  041%=      5-min Rain = 0
KPD1 141750Z 04006KT 28/13 A3027 RMK A01 T02790134  RH  041%=      5-min Rain = 0
KPD1 141751Z 05010KT 28/13 A3026 RMK A01 T02820134  RH  040%=      5-min Rain = 0
KPD1 141752Z 08008KT 28/13 A3026 RMK A01 T02830133  RH  040%=      5-min Rain = 0
KPD1 141753Z 06008G13KT 28/13 A3026 RMK A01 T02840134  RH  040%=      5-min Rain = 0
KPD1 141754Z 04007KT 29/13 A3026 RMK A01 T02850134  RH  039%=      5-min Rain = 0
KPD1 141755Z 04007KT 29/13 A3026 RMK A01 T02850133  RH  039%=      5-min Rain = 0
KPD1 141756Z 02007KT 28/13 A3025 RMK A01 T02830134  RH  040%=      5-min Rain = 0
KPD1 141757Z 04005KT 29/13 A3025 RMK A01 T02850132  RH  039%=      5-min Rain = 0
KPD1 141758Z 05005KT 29/13 A3025 RMK A01 T02860133  RH  039%=      5-min Rain = 0
KPD1 141759Z 05006KT 29/13 A3025 RMK A01 T02870133  RH  039%=      5-min Rain = 0
KPD1 141800Z 05006KT 29/13 A3025 RMK A01 T02890130  RH  038%=      5-min Rain = 0
KPD1 141801Z 03005KT 29/13 A3025 RMK A01 T02880128  RH  037%=      5-min Rain = 0
KPD1 141802Z 02007KT 29/13 A3025 RMK A01 T02870129  RH  038%=      5-min Rain = 0
KPD1 141803Z 04005KT 29/13 A3025 RMK A01 T02870127  RH  037%=      5-min Rain = 0
KPD1 141804Z 03006KT 29/13 A3025 RMK A01 T02860127  RH  037%=      5-min Rain = 0
KPD1 141805Z 04007KT 29/13 A3025 RMK A01 T02850128  RH  038%=      5-min Rain = 0
KPD1 141806Z 03006KT 29/13 A3025 RMK A01 T02860131  RH  039%=      5-min Rain = 0
KPD1 141807Z 05007KT 29/13 A3025 RMK A01 T02860131  RH  038%=      5-min Rain = 0
KPD1 141808Z 07006KT 29/13 A3024 RMK A01 T02860131  RH  039%=      5-min Rain = 0
KPD1 141809Z 09005KT 29/13 A3024 RMK A01 T02870129  RH  038%=      5-min Rain = 0
KPD1 141810Z 07006KT 29/13 A3024 RMK A01 T02870131  RH  038%=      5-min Rain = 0
KPD1 141811Z 06007KT 29/13 A3024 RMK A01 T02870131  RH  038%=      5-min Rain = 0
KPD1 141812Z 06007KT 29/13 A3024 RMK A01 T02850131  RH  039%=      5-min Rain = 0
KPD1 141813Z 08006KT 28/13 A3024 RMK A01 T02840129  RH  038%=      5-min Rain = 0
KPD1 141814Z 06006KT 28/13 A3024 RMK A01 T02830129  RH  039%=      5-min Rain = 0
KPD1 141815Z 05005KT 28/13 A3024 RMK A01 T02830130  RH  039%=      5-min Rain = 0
KPD1 141816Z 07004KT 28/13 A3023 RMK A01 T02820131  RH  039%=      5-min Rain = 0
KPD1 141817Z 08001KT 28/13 A3023 RMK A01 T02820131  RH  039%=      5-min Rain = 0
KPD1 141818Z 13004KT 28/13 A3023 RMK A01 T02840132  RH  039%=      5-min Rain = 0
KPD1 141819Z 13004KT 29/13 A3023 RMK A01 T02860134  RH  039%=      5-min Rain = 0
KPD1 141820Z 08005KT 29/14 A3023 RMK A01 T02890135  RH  039%=      5-min Rain = 0
KPD1 141821Z 09004KT 29/13 A3023 RMK A01 T02890133  RH  038%=      5-min Rain = 0
KPD1 141822Z 12004G11KT 29/13 A3023 RMK A01 T02860133  RH  039%=      5-min Rain = 0
KPD1 141823Z 12007KT 29/13 A3022 RMK A01 T02850133  RH  039%=      5-min Rain = 0
KPD1 141824Z 10007KT 29/13 A3022 RMK A01 T02850133  RH  039%=      5-min Rain = 0
KPD1 141825Z 10007KT 29/14 A3022 RMK A01 T02870135  RH  039%=      5-min Rain = 0
KPD1 141826Z 09004KT 29/13 A3022 RMK A01 T02870133  RH  039%=      5-min Rain = 0
KPD1 141827Z 13003KT 29/13 A3022 RMK A01 T02880134  RH  039%=      5-min Rain = 0
KPD1 141828Z 12001KT 29/13 A3022 RMK A01 T02900133  RH  038%=      5-min Rain = 0
KPD1 141829Z 22001KT 29/13 A3022 RMK A01 T02900132  RH  038%=      5-min Rain = 0
KPD1 141830Z 24002KT 29/13 A3022 RMK A01 T02900131  RH  038%=      5-min Rain = 0
KPD1 141831Z 25001KT 29/13 A3022 RMK A01 T02890131  RH  038%=      5-min Rain = 0
KPD1 141832Z 27002KT 29/13 A3022 RMK A01 T02880132  RH  038%=      5-min Rain = 0
KPD1 141833Z 01002KT 29/13 A3022 RMK A01 T02910133  RH  038%=      5-min Rain = 0
KPD1 141834Z 09003KT 29/14 A3022 RMK A01 T02940135  RH  038%=      5-min Rain = 0
KPD1 141835Z 10004KT 30/13 A3022 RMK A01 T02980134  RH  037%=      5-min Rain = 0
KPD1 141836Z 16003KT 30/14 A3022 RMK A01 T02990135  RH  037%=      5-min Rain = 0
KPD1 141837Z 16003KT 30/14 A3021 RMK A01 T03010135  RH  036%=      5-min Rain = 0
KPD1 141838Z 13004KT 30/13 A3021 RMK A01 T03020133  RH  036%=      5-min Rain = 0
KPD1 141839Z 16003KT 30/13 A3021 RMK A01 T03020133  RH  036%=      5-min Rain = 0
KPD1 141840Z 19004KT 30/13 A3021 RMK A01 T03010134  RH  036%=      5-min Rain = 0
KPD1 141841Z 19006KT 30/13 A3021 RMK A01 T03010134  RH  036%=      5-min Rain = 0
KPD1 141842Z 18007KT 30/13 A3022 RMK A01 T03000133  RH  036%=      5-min Rain = 0
KPD1 141843Z 16007KT 30/13 A3022 RMK A01 T02990132  RH  036%=      5-min Rain = 0
KPD1 141844Z 18007KT 30/13 A3022 RMK A01 T02980132  RH  036%=      5-min Rain = 0
KPD1 141845Z 21004KT 30/13 A3022 RMK A01 T02970131  RH  036%=      5-min Rain = 0
KPD1 141846Z 19003KT 29/13 A3022 RMK A01 T02930131  RH  037%=      5-min Rain = 0
KPD1 141847Z 19003G8KT 29/13 A3021 RMK A01 T02930131  RH  037%=      5-min Rain = 0
KPD1 141848Z 20007KT 30/13 A3021 RMK A01 T02960132  RH  037%=      5-min Rain = 0
KPD1 141849Z 16004KT 30/13 A3021 RMK A01 T02990131  RH  036%=      5-min Rain = 0
KPD1 141850Z 15003KT 30/13 A3021 RMK A01 T02990130  RH  035%=      5-min Rain = 0
KPD1 141851Z 16003KT 30/13 A3021 RMK A01 T02990130  RH  035%=      5-min Rain = 0
KPD1 141852Z 19000KT 30/13 A3021 RMK A01 T02990129  RH  035%=      5-min Rain = 0
KPD1 141853Z 15001KT 30/13 A3021 RMK A01 T02980129  RH  035%=      5-min Rain = 0
KPD1 141854Z 09005KT 30/13 A3021 RMK A01 T02980129  RH  035%=      5-min Rain = 0
KPD1 141855Z 11003KT 30/13 A3021 RMK A01 T03020130  RH  035%=      5-min Rain = 0
KPD1 141856Z 11006KT 31/13 A3021 RMK A01 T03050131  RH  034%=      5-min Rain = 0
KPD1 141857Z 09005KT 31/13 A3021 RMK A01 T03060128  RH  034%=      5-min Rain = 0
KPD1 141858Z 09006KT 30/13 A3021 RMK A01 T03030129  RH  034%=      5-min Rain = 0
KPD1 141859Z 08005KT 30/13 A3021 RMK A01 T03030130  RH  035%=      5-min Rain = 0
KPD1 141900Z 11007KT 31/13 A3021 RMK A01 T03070132  RH  034%=      5-min Rain = 0
KPD1 141901Z 13005KT 31/13 A3021 RMK A01 T03090131  RH  034%=      5-min Rain = 0
KPD1 141902Z 13006KT 31/13 A3021 RMK A01 T03100131  RH  034%=      5-min Rain = 0
KPD1 141903Z 13003KT 31/13 A3021 RMK A01 T03080130  RH  034%=      5-min Rain = 0
KPD1 141904Z 14002KT 31/13 A3021 RMK A01 T03070130  RH  034%=      5-min Rain = 0
KPD1 141905Z 11001KT 31/13 A3021 RMK A01 T03070129  RH  034%=      5-min Rain = 0
KPD1 141906Z 34001KT 31/13 A3021 RMK A01 T03070128  RH  033%=      5-min Rain = 0
KPD1 141907Z 35002KT 31/13 A302 RMK A01 T03070126  RH  033%=      5-min Rain = 0
KPD1 141908Z 35004KT 31/13 A302 RMK A01 T03070127  RH  033%=      5-min Rain = 0
KPD1 141909Z 04002KT 31/13 A302 RMK A01 T03110131  RH  033%=      5-min Rain = 0
KPD1 141910Z 11005KT 32/13 A302 RMK A01 T03160131  RH  032%=      5-min Rain = 0
KPD1 141911Z 11006KT 32/13 A302 RMK A01 T03190132  RH  032%=      5-min Rain = 0
KPD1 141912Z 08004KT 32/13 A302 RMK A01 T03220129  RH  031%=      5-min Rain = 0
KPD1 141913Z 06003KT 32/13 A302 RMK A01 T03190131  RH  032%=      5-min Rain = 0
KPD1 141914Z 04004KT 32/13 A302 RMK A01 T03190130  RH  032%=      5-min Rain = 0
KPD1 141915Z 08003KT 32/13 A302 RMK A01 T03180130  RH  032%=      5-min Rain = 0
KPD1 141916Z 08001KT 32/13 A302 RMK A01 T03160128  RH  032%=      5-min Rain = 0
KPD1 141917Z 10005KT 31/13 A302 RMK A01 T03130130  RH  033%=      5-min Rain = 0
KPD1 141918Z 11004KT 32/13 A302 RMK A01 T03170132  RH  032%=      5-min Rain = 0
KPD1 141919Z 05005KT 32/13 A302 RMK A01 T03200131  RH  032%=      5-min Rain = 0
KPD1 141920Z 05005KT 32/13 A302 RMK A01 T03210134  RH  032%=      5-min Rain = 0
KPD1 141921Z 02008KT 32/13 A3021 RMK A01 T03220134  RH  032%=      5-min Rain = 0
KPD1 141922Z 04007KT 32/13 A3021 RMK A01 T03210133  RH  032%=      5-min Rain = 0
KPD1 141923Z 04008KT 32/13 A3021 RMK A01 T03180132  RH  032%=      5-min Rain = 0
KPD1 141924Z 03005KT 31/13 A3021 RMK A01 T03140131  RH  033%=      5-min Rain = 0
KPD1 141925Z 03007G12KT 31/13 A3021 RMK A01 T03110130  RH  033%=      5-min Rain = 0
KPD1 141926Z 03009KT 31/13 A3021 RMK A01 T03070128  RH  033%=      5-min Rain = 0
KPD1 141927Z 03009KT 30/13 A3021 RMK A01 T03030126  RH  034%=      5-min Rain = 0
KPD1 141928Z 02007KT 30/13 A3021 RMK A01 T03000126  RH  034%=      5-min Rain = 0
KPD1 141929Z 03005KT 30/13 A3021 RMK A01 T02990128  RH  035%=      5-min Rain = 0
KPD1 141930Z 04007KT 30/13 A3021 RMK A01 T02990130  RH  035%=      5-min Rain = 0
KPD1 141931Z 03006KT 30/13 A3021 RMK A01 T02990131  RH  036%=      5-min Rain = 0
KPD1 141932Z 03008KT 30/13 A3021 RMK A01 T02980131  RH  036%=      5-min Rain = 0
KPD1 141933Z 03008KT 30/13 A3021 RMK A01 T02970130  RH  036%=      5-min Rain = 0
KPD1 141934Z 03008KT 30/13 A3021 RMK A01 T02970129  RH  036%=      5-min Rain = 0
KPD1 141935Z 03006KT 30/13 A3021 RMK A01 T02960130  RH  036%=      5-min Rain = 0
KPD1 141936Z 03006KT 30/13 A302 RMK A01 T02970130  RH  036%=      5-min Rain = 0
KPD1 141937Z 05006KT 30/13 A302 RMK A01 T03000132  RH  036%=      5-min Rain = 0
KPD1 141938Z 04006KT 30/13 A302 RMK A01 T03020130  RH  035%=      5-min Rain = 0
KPD1 141939Z 05006KT 30/13 A302 RMK A01 T03030130  RH  035%=      5-min Rain = 0
KPD1 141940Z 03006KT 30/13 A302 RMK A01 T03040129  RH  034%=      5-min Rain = 0
KPD1 141941Z 00007KT 31/13 A302 RMK A01 T03050129  RH  034%=      5-min Rain = 0
KPD1 141942Z 04008KT 31/13 A302 RMK A01 T03050129  RH  034%=      5-min Rain = 0
KPD1 141943Z 02007KT 31/13 A3021 RMK A01 T03070128  RH  034%=      5-min Rain = 0
KPD1 141944Z 04007KT 31/13 A3021 RMK A01 T03070130  RH  034%=      5-min Rain = 0
KPD1 141945Z 05006KT 31/13 A302 RMK A01 T03060130  RH  034%=      5-min Rain = 0
KPD1 141946Z 03004KT 31/13 A302 RMK A01 T03060130  RH  034%=      5-min Rain = 0
KPD1 141947Z 03007KT 31/13 A302 RMK A01 T03060130  RH  034%=      5-min Rain = 0
KPD1 141948Z 05005G10KT 31/13 A302 RMK A01 T03070130  RH  034%=      5-min Rain = 0
KPD1 141949Z 05006KT 31/13 A302 RMK A01 T03070131  RH  034%=      5-min Rain = 0
KPD1 141950Z 06007KT 31/13 A302 RMK A01 T03080131  RH  034%=      5-min Rain = 0
KPD1 141951Z 05003KT 31/13 A302 RMK A01 T03090131  RH  034%=      5-min Rain = 0
KPD1 141952Z 02003KT 31/13 A302 RMK A01 T03090131  RH  034%=      5-min Rain = 0
KPD1 141953Z 07004KT 31/13 A302 RMK A01 T03130133  RH  034%=      5-min Rain = 0
KPD1 141954Z 05002KT 31/13 A302 RMK A01 T03140131  RH  033%=      5-min Rain = 0
KPD1 141955Z 04002KT 31/13 A302 RMK A01 T03130131  RH  033%=      5-min Rain = 0
KPD1 141956Z 02003KT 31/13 A302 RMK A01 T03120131  RH  033%=      5-min Rain = 0
KPD1 141957Z 02007KT 31/13 A302 RMK A01 T03140131  RH  033%=      5-min Rain = 0
KPD1 141958Z 02007KT 32/13 A302 RMK A01 T03150128  RH  032%=      5-min Rain = 0
KPD1 141959Z 02007KT 31/13 A302 RMK A01 T03110127  RH  032%=      5-min Rain = 0
KPD1 142000Z 02004KT 31/13 A302 RMK A01 T03090128  RH  033%=      5-min Rain = 0
KPD1 142001Z 00002KT 31/13 A302 RMK A01 T03100127  RH  033%=      5-min Rain = 0
KPD1 142002Z 35003KT 31/13 A302 RMK A01 T03110129  RH  033%=      5-min Rain = 0
KPD1 142003Z 03003KT 31/13 A302 RMK A01 T03130129  RH  032%=      5-min Rain = 0
KPD1 142004Z 03005KT 32/13 A302 RMK A01 T03150129  RH  032%=      5-min Rain = 0
KPD1 142005Z 03004KT 32/13 A302 RMK A01 T03160130  RH  032%=      5-min Rain = 0
KPD1 142006Z 08005KT 32/13 A302 RMK A01 T03180132  RH  032%=      5-min Rain = 0
KPD1 142007Z 10006KT 32/13 A302 RMK A01 T03200134  RH  032%=      5-min Rain = 0
KPD1 142008Z 10006KT 32/13 A302 RMK A01 T03210132  RH  032%=      5-min Rain = 0
KPD1 142009Z 10003KT 32/13 A302 RMK A01 T03180132  RH  032%=      5-min Rain = 0
KPD1 142010Z 06002KT 32/13 A302 RMK A01 T03180133  RH  033%=      5-min Rain = 0
KPD1 142011Z 05001KT 32/13 A302 RMK A01 T03210131  RH  032%=      5-min Rain = 0
KPD1 142012Z 16001KT 32/13 A302 RMK A01 T03210130  RH  031%=      5-min Rain = 0
KPD1 142013Z 09001KT 32/13 A302 RMK A01 T03190129  RH  031%=      5-min Rain = 0
KPD1 142014Z 04005KT 32/13 A3019 RMK A01 T03170130  RH  032%=      5-min Rain = 0
KPD1 142015Z 03004KT 32/13 A3019 RMK A01 T03150128  RH  032%=      5-min Rain = 0
KPD1 142016Z 36001KT 31/13 A3019 RMK A01 T03120127  RH  032%=      5-min Rain = 0
KPD1 142017Z 04003KT 31/13 A3019 RMK A01 T03110127  RH  033%=      5-min Rain = 0
KPD1 142018Z 02002KT 31/13 A3019 RMK A01 T03110127  RH  033%=      5-min Rain = 0
KPD1 142019Z 04001KT 31/13 A3019 RMK A01 T03110126  RH  032%=      5-min Rain = 0
KPD1 142020Z 06004KT 31/13 A3019 RMK A01 T03100128  RH  033%=      5-min Rain = 0
KPD1 142021Z 08003KT 31/13 A3019 RMK A01 T03120128  RH  033%=      5-min Rain = 0
KPD1 142022Z 05005KT 31/13 A3019 RMK A01 T03140129  RH  032%=      5-min Rain = 0
KPD1 142023Z 04003KT 32/13 A3019 RMK A01 T03160132  RH  033%=      5-min Rain = 0
KPD1 142024Z 06006KT 32/13 A3019 RMK A01 T03180131  RH  032%=      5-min Rain = 0
KPD1 142025Z 02005G10KT 32/13 A3019 RMK A01 T03190132  RH  032%=      5-min Rain = 0
KPD1 142026Z 02007KT 32/13 A3019 RMK A01 T03200132  RH  032%=      5-min Rain = 0
KPD1 142027Z 01007KT 32/13 A3019 RMK A01 T03220131  RH  031%=      5-min Rain = 0
KPD1 142028Z 01008KT 32/13 A3019 RMK A01 T03220131  RH  031%=      5-min Rain = 0
KPD1 142029Z 01006KT 32/13 A3019 RMK A01 T03220130  RH  031%=      5-min Rain = 0
KPD1 142030Z 36005KT 32/13 A3019 RMK A01 T03200130  RH  031%=      5-min Rain = 0
KPD1 142031Z 01004KT 32/13 A3018 RMK A01 T03210131  RH  032%=      5-min Rain = 0
KPD1 142032Z 02003KT 32/13 A3018 RMK A01 T03230131  RH  031%=      5-min Rain = 0
KPD1 142033Z 04004KT 32/13 A3018 RMK A01 T03240132  RH  031%=      5-min Rain = 0
KPD1 142034Z 03006KT 33/13 A3018 RMK A01 T03260130  RH  030%=      5-min Rain = 0
KPD1 142035Z 01005KT 32/13 A3018 RMK A01 T03240128  RH  030%=      5-min Rain = 0
KPD1 142036Z 32004KT 32/13 A3018 RMK A01 T03200126  RH  031%=      5-min Rain = 0
KPD1 142037Z 33005KT 32/13 A3018 RMK A01 T03190127  RH  031%=      5-min Rain = 0
KPD1 142038Z 01003KT 32/13 A3018 RMK A01 T03190128  RH  031%=      5-min Rain = 0
KPD1 142039Z 01006KT 32/13 A3018 RMK A01 T03210128  RH  031%=      5-min Rain = 0
KPD1 142040Z 33004KT 32/13 A3018 RMK A01 T03240128  RH  030%=      5-min Rain = 0
KPD1 142041Z 32003KT 33/13 A3018 RMK A01 T03250125  RH  030%=      5-min Rain = 0
KPD1 142042Z 34001KT 32/13 A3018 RMK A01 T03240126  RH  030%=      5-min Rain = 0
KPD1 142043Z 30002KT 32/12 A3018 RMK A01 T03240123  RH  029%=      5-min Rain = 0
KPD1 142044Z 00006KT 32/13 A3018 RMK A01 T03220125  RH  030%=      5-min Rain = 0
KPD1 142045Z 04003KT 32/13 A3018 RMK A01 T03230127  RH  030%=      5-min Rain = 0
KPD1 142046Z 03004KT 32/13 A3018 RMK A01 T03230127  RH  030%=      5-min Rain = 0
KPD1 142047Z 03006KT 32/13 A3018 RMK A01 T03220126  RH  030%=      5-min Rain = 0
KPD1 142048Z 01005KT 32/12 A3018 RMK A01 T03220123  RH  030%=      5-min Rain = 0
KPD1 142049Z 00003KT 32/12 A3018 RMK A01 T03180121  RH  030%=      5-min Rain = 0
KPD1 142050Z 01002KT 32/12 A3018 RMK A01 T03160122  RH  030%=      5-min Rain = 0
KPD1 142051Z 34005KT 32/12 A3017 RMK A01 T03170121  RH  030%=      5-min Rain = 0
KPD1 142052Z 34006KT 32/13 A3017 RMK A01 T03190125  RH  031%=      5-min Rain = 0
KPD1 142053Z 34005KT 32/13 A3017 RMK A01 T03210126  RH  031%=      5-min Rain = 0
KPD1 142054Z 34006KT 32/13 A3017 RMK A01 T03210125  RH  030%=      5-min Rain = 0
KPD1 142055Z 33005KT 32/12 A3018 RMK A01 T03200124  RH  030%=      5-min Rain = 0
KPD1 142056Z 34006KT 32/13 A3017 RMK A01 T03200126  RH  031%=      5-min Rain = 0
KPD1 142057Z 36005KT 32/13 A3018 RMK A01 T03210127  RH  031%=      5-min Rain = 0
KPD1 142058Z 35003KT 32/13 A3018 RMK A01 T03220125  RH  030%=      5-min Rain = 0
KPD1 142059Z 33002KT 32/13 A3017 RMK A01 T03220125  RH  030%=      5-min Rain = 0
KPD1 142100Z 35002KT 32/12 A3017 RMK A01 T03220124  RH  030%=      5-min Rain = 0
KPD1 142101Z 02000KT 32/12 A3017 RMK A01 T03220123  RH  030%=      5-min Rain = 0
KPD1 142102Z 05003KT 33/12 A3017 RMK A01 T03250123  RH  029%=      5-min Rain = 0
KPD1 142103Z 08003KT 33/12 A3017 RMK A01 T03260121  RH  029%=      5-min Rain = 0
KPD1 142104Z 09002KT 33/12 A3017 RMK A01 T03260120  RH  028%=      5-min Rain = 0
KPD1 142105Z 08002KT 33/12 A3017 RMK A01 T03260120  RH  028%=      5-min Rain = 0
KPD1 142106Z 08002KT 33/12 A3017 RMK A01 T03270122  RH  029%=      5-min Rain = 0
KPD1 142107Z 05001KT 33/12 A3017 RMK A01 T03290122  RH  028%=      5-min Rain = 0
KPD1 142108Z 06001KT 33/12 A3017 RMK A01 T03300119  RH  028%=      5-min Rain = 0
KPD1 142109Z 30005KT 33/12 A3017 RMK A01 T03300120  RH  028%=      5-min Rain = 0
KPD1 142110Z 30005KT 33/12 A3017 RMK A01 T03300121  RH  028%=      5-min Rain = 0
KPD1 142111Z 29005KT 33/12 A3017 RMK A01 T03290121  RH  028%=      5-min Rain = 0
KPD1 142112Z 26004KT 33/12 A3017 RMK A01 T03280121  RH  028%=      5-min Rain = 0
KPD1 142113Z 27003KT 33/12 A3017 RMK A01 T03290121  RH  028%=      5-min Rain = 0
KPD1 142114Z 26004KT 33/12 A3017 RMK A01 T03300119  RH  028%=      5-min Rain = 0
KPD1 142115Z 27002KT 33/12 A3017 RMK A01 T03280118  RH  028%=      5-min Rain = 0
KPD1 142116Z 28001KT 33/12 A3017 RMK A01 T03270117  RH  028%=      5-min Rain = 0
KPD1 142117Z 36001KT 33/12 A3017 RMK A01 T03270118  RH  028%=      5-min Rain = 0
KPD1 142118Z 31002KT 33/12 A3017 RMK A01 T03280119  RH  028%=      5-min Rain = 0
KPD1 142119Z 30003KT 33/12 A3017 RMK A01 T03300121  RH  028%=      5-min Rain = 0
KPD1 142120Z 25002KT 33/12 A3016 RMK A01 T03330121  RH  028%=      5-min Rain = 0
KPD1 142121Z 10006KT 34/12 A3016 RMK A01 T03370124  RH  028%=      5-min Rain = 0
KPD1 142122Z 09008KT 34/12 A3016 RMK A01 T03400124  RH  027%=      5-min Rain = 0
KPD1 142123Z 09005KT 34/12 A3016 RMK A01 T03380123  RH  027%=      5-min Rain = 0
KPD1 142124Z 07002KT 34/12 A3016 RMK A01 T03350124  RH  028%=      5-min Rain = 0
KPD1 142125Z 07005KT 34/12 A3016 RMK A01 T03350124  RH  028%=      5-min Rain = 0
KPD1 142126Z 10004KT 33/12 A3016 RMK A01 T03340124  RH  028%=      5-min Rain = 0
KPD1 142127Z 02003KT 33/12 A3016 RMK A01 T03330123  RH  028%=      5-min Rain = 0
KPD1 142128Z 02002KT 33/13 A3016 RMK A01 T03320125  RH  028%=      5-min Rain = 0
KPD1 142129Z 01003KT 34/13 A3016 RMK A01 T03350126  RH  028%=      5-min Rain = 0
KPD1 142130Z 35005KT 34/13 A3016 RMK A01 T03380125  RH  028%=      5-min Rain = 0
KPD1 142131Z 34004KT 34/13 A3016 RMK A01 T03380125  RH  027%=      5-min Rain = 0
KPD1 142132Z 31003KT 34/12 A3016 RMK A01 T03370124  RH  028%=      5-min Rain = 0
KPD1 142133Z 02002KT 33/12 A3016 RMK A01 T03340122  RH  028%=      5-min Rain = 0
KPD1 142134Z 05004KT 33/12 A3016 RMK A01 T03330123  RH  028%=      5-min Rain = 0
KPD1 142135Z 03006KT 33/12 A3016 RMK A01 T03320123  RH  028%=      5-min Rain = 0
KPD1 142136Z 04006KT 33/12 A3016 RMK A01 T03320123  RH  028%=      5-min Rain = 0
KPD1 142137Z 04006KT 33/12 A3016 RMK A01 T03320123  RH  028%=      5-min Rain = 0
KPD1 142138Z 03005G10KT 33/12 A3016 RMK A01 T03330124  RH  028%=      5-min Rain = 0
KPD1 142139Z 04006KT 33/12 A3016 RMK A01 T03310121  RH  028%=      5-min Rain = 0
KPD1 142140Z 03004KT 33/12 A3016 RMK A01 T03280122  RH  029%=      5-min Rain = 0
KPD1 142141Z 35004KT 33/12 A3015 RMK A01 T03300122  RH  028%=      5-min Rain = 0
KPD1 142142Z 01006KT 33/12 A3015 RMK A01 T03300123  RH  028%=      5-min Rain = 0
KPD1 142143Z 35006KT 33/12 A3015 RMK A01 T03300122  RH  028%=      5-min Rain = 0
KPD1 142144Z 36004KT 33/12 A3015 RMK A01 T03300121  RH  028%=      5-min Rain = 0
KPD1 142145Z 36004KT 33/12 A3015 RMK A01 T03300122  RH  028%=      5-min Rain = 0
KPD1 142146Z 02005KT 33/12 A3015 RMK A01 T03310122  RH  028%=      5-min Rain = 0
KPD1 142147Z 36004KT 33/12 A3015 RMK A01 T03340124  RH  028%=      5-min Rain = 0
KPD1 142148Z 04003KT 34/12 A3015 RMK A01 T03350123  RH  028%=      5-min Rain = 0
KPD1 142149Z 05005KT 34/12 A3015 RMK A01 T03350124  RH  028%=      5-min Rain = 0
KPD1 142150Z 10003KT 34/12 A3015 RMK A01 T03360122  RH  027%=      5-min Rain = 0
KPD1 142151Z 06002KT 34/12 A3015 RMK A01 T03350122  RH  027%=      5-min Rain = 0
KPD1 142152Z 04004KT 33/12 A3015 RMK A01 T03330121  RH  028%=      5-min Rain = 0
KPD1 142153Z 04005KT 33/12 A3015 RMK A01 T03310122  RH  028%=      5-min Rain = 0
KPD1 142154Z 04005KT 33/12 A3015 RMK A01 T03320122  RH  028%=      5-min Rain = 0
KPD1 142155Z 08003KT 33/12 A3015 RMK A01 T03310121  RH  028%=      5-min Rain = 0
KPD1 142156Z 05003KT 33/12 A3015 RMK A01 T03310121  RH  028%=      5-min Rain = 0
KPD1 142157Z 09005KT 33/12 A3015 RMK A01 T03320122  RH  028%=      5-min Rain = 0
KPD1 142158Z 10002KT 33/12 A3015 RMK A01 T03320120  RH  028%=      5-min Rain = 0
KPD1 142159Z 05000KT 33/12 A3015 RMK A01 T03320120  RH  028%=      5-min Rain = 0
KPD1 142200Z 03001KT 33/12 A3015 RMK A01 T03320121  RH  028%=      5-min Rain = 0
KPD1 142201Z 30003KT 33/12 A3015 RMK A01 T03320120  RH  028%=      5-min Rain = 0
KPD1 142202Z 32005KT 33/12 A3015 RMK A01 T03320121  RH  028%=      5-min Rain = 0
KPD1 142203Z 35007KT 33/12 A3015 RMK A01 T03340121  RH  027%=      5-min Rain = 0
KPD1 142204Z 36005KT 33/12 A3015 RMK A01 T03340120  RH  027%=      5-min Rain = 0
KPD1 142205Z 34004KT 33/12 A3014 RMK A01 T03330120  RH  027%=      5-min Rain = 0
KPD1 142206Z 00004KT 33/12 A3015 RMK A01 T03340121  RH  027%=      5-min Rain = 0
KPD1 142207Z 03005KT 33/12 A3015 RMK A01 T03340119  RH  027%=      5-min Rain = 0
KPD1 142208Z 02004KT 33/12 A3015 RMK A01 T03310118  RH  027%=      5-min Rain = 0
KPD1 142209Z 36003KT 33/12 A3015 RMK A01 T03280118  RH  028%=      5-min Rain = 0
KPD1 142210Z 06003KT 33/12 A3015 RMK A01 T03280119  RH  028%=      5-min Rain = 0
KPD1 142211Z 05006KT 33/12 A3015 RMK A01 T03290120  RH  028%=      5-min Rain = 0
KPD1 142212Z 04004KT 33/12 A3015 RMK A01 T03290119  RH  028%=      5-min Rain = 0
KPD1 142213Z 05001KT 33/12 A3015 RMK A01 T03270118  RH  028%=      5-min Rain = 0
KPD1 142214Z 07000KT 33/12 A3015 RMK A01 T03260118  RH  028%=      5-min Rain = 0
KPD1 142215Z 10002KT 33/12 A3015 RMK A01 T03260119  RH  028%=      5-min Rain = 0
KPD1 142216Z 17002KT 33/12 A3014 RMK A01 T03270116  RH  028%=      5-min Rain = 0
KPD1 142217Z 33001KT 33/12 A3014 RMK A01 T03260116  RH  028%=      5-min Rain = 0
KPD1 142218Z 30004KT 32/12 A3014 RMK A01 T03240115  RH  028%=      5-min Rain = 0
KPD1 142219Z 26003KT 32/11 A3014 RMK A01 T03220114  RH  028%=      5-min Rain = 0
KPD1 142220Z 24003KT 32/12 A3014 RMK A01 T03210115  RH  028%=      5-min Rain = 0
KPD1 142221Z 05002KT 32/12 A3014 RMK A01 T03230117  RH  028%=      5-min Rain = 0
KPD1 142222Z 05001KT 32/12 A3014 RMK A01 T03240118  RH  028%=      5-min Rain = 0
KPD1 142223Z 10002KT 33/12 A3014 RMK A01 T03270119  RH  028%=      5-min Rain = 0
KPD1 142224Z 10004KT 33/12 A3014 RMK A01 T03270119  RH  028%=      5-min Rain = 0
KPD1 142225Z 08006KT 33/12 A3014 RMK A01 T03280120  RH  028%=      5-min Rain = 0
KPD1 142226Z 05007KT 33/12 A3014 RMK A01 T03300121  RH  028%=      5-min Rain = 0
KPD1 142227Z 05007KT 33/12 A3014 RMK A01 T03320121  RH  028%=      5-min Rain = 0
KPD1 142228Z 07005KT 33/12 A3014 RMK A01 T03330122  RH  028%=      5-min Rain = 0
KPD1 142229Z 09005KT 33/12 A3014 RMK A01 T03340121  RH  027%=      5-min Rain = 0
KPD1 142230Z 10003KT 34/12 A3014 RMK A01 T03350120  RH  027%=      5-min Rain = 0
KPD1 142231Z 07005KT 34/12 A3014 RMK A01 T03350120  RH  027%=      5-min Rain = 0
KPD1 142232Z 01004KT 34/12 A3014 RMK A01 T03350122  RH  027%=      5-min Rain = 0
KPD1 142233Z 35003KT 34/12 A3014 RMK A01 T03370121  RH  027%=      5-min Rain = 0
KPD1 142234Z 02004KT 34/12 A3013 RMK A01 T03390121  RH  027%=      5-min Rain = 0
KPD1 142235Z 34005KT 34/12 A3013 RMK A01 T03390120  RH  026%=      5-min Rain = 0
KPD1 142236Z 32002KT 34/12 A3013 RMK A01 T03360115  RH  026%=      5-min Rain = 0
KPD1 142237Z 34003KT 33/12 A3013 RMK A01 T03330115  RH  027%=      5-min Rain = 0
KPD1 142238Z 35003KT 33/12 A3013 RMK A01 T03340118  RH  027%=      5-min Rain = 0
KPD1 142239Z 35004KT 34/12 A3013 RMK A01 T03370118  RH  026%=      5-min Rain = 0
KPD1 142240Z 35005KT 34/12 A3014 RMK A01 T03360118  RH  027%=      5-min Rain = 0
KPD1 142241Z 34003KT 34/12 A3014 RMK A01 T03360119  RH  027%=      5-min Rain = 0
KPD1 142242Z 33004KT 34/12 A3014 RMK A01 T03350118  RH  027%=      5-min Rain = 0
KPD1 142243Z 32002KT 34/12 A3014 RMK A01 T03360120  RH  027%=      5-min Rain = 0
KPD1 142244Z 00001KT 34/12 A3014 RMK A01 T03360119  RH  027%=      5-min Rain = 0
KPD1 142245Z 00005KT 34/12 A3014 RMK A01 T03360119  RH  027%=      5-min Rain = 0
KPD1 142246Z 01006KT 34/12 A3014 RMK A01 T03370116  RH  026%=      5-min Rain = 0
KPD1 142247Z 01006KT 33/12 A3014 RMK A01 T03340115  RH  026%=      5-min Rain = 0
KPD1 142248Z 03005KT 33/12 A3014 RMK A01 T03320115  RH  027%=      5-min Rain = 0
KPD1 142249Z 02004KT 33/12 A3014 RMK A01 T03310116  RH  027%=      5-min Rain = 0
KPD1 142250Z 04003KT 33/12 A3014 RMK A01 T03330115  RH  027%=      5-min Rain = 0
KPD1 142251Z 04004KT 34/12 A3014 RMK A01 T03350116  RH  027%=      5-min Rain = 0
KPD1 142252Z 03004KT 34/12 A3014 RMK A01 T03350116  RH  026%=      5-min Rain = 0
KPD1 142253Z 04006KT 33/12 A3014 RMK A01 T03330115  RH  026%=      5-min Rain = 0
KPD1 142254Z 06005KT 33/12 A3014 RMK A01 T03310116  RH  027%=      5-min Rain = 0
KPD1 142255Z 04003KT 33/12 A3014 RMK A01 T03310116  RH  027%=      5-min Rain = 0
KPD1 142256Z 02004KT 33/12 A3014 RMK A01 T03310116  RH  027%=      5-min Rain = 0
KPD1 142257Z 04005KT 33/12 A3014 RMK A01 T03300118  RH  027%=      5-min Rain = 0
KPD1 142258Z 03004KT 33/12 A3014 RMK A01 T03300119  RH  028%=      5-min Rain = 0
KPD1 142259Z 05001KT 33/12 A3014 RMK A01 T03290117  RH  028%=      5-min Rain = 0
KPD1 142300Z 35000KT 33/12 A3013 RMK A01 T03290117  RH  028%=      5-min Rain = 0
KPD1 142301Z 32001KT 33/12 A3013 RMK A01 T03300118  RH  027%=      5-min Rain = 0
KPD1 142302Z 33004KT 33/12 A3013 RMK A01 T03330118  RH  027%=      5-min Rain = 0
KPD1 142303Z 34002KT 33/12 A3014 RMK A01 T03330118  RH  027%=      5-min Rain = 0
KPD1 142304Z 34004KT 33/12 A3014 RMK A01 T03330117  RH  027%=      5-min Rain = 0
KPD1 142305Z 01004KT 33/12 A3014 RMK A01 T03330119  RH  027%=      5-min Rain = 0
KPD1 142306Z 01004KT 33/12 A3014 RMK A01 T03320119  RH  027%=      5-min Rain = 0
KPD1 142307Z 05006KT 33/12 A3014 RMK A01 T03320120  RH  028%=      5-min Rain = 0
KPD1 142308Z 05004KT 33/12 A3014 RMK A01 T03300119  RH  028%=      5-min Rain = 0
KPD1 142309Z 06003KT 33/12 A3014 RMK A01 T03290119  RH  028%=      5-min Rain = 0
KPD1 142310Z 05004KT 33/12 A3014 RMK A01 T03290120  RH  028%=      5-min Rain = 0
KPD1 142311Z 04007KT 33/12 A3014 RMK A01 T03320120  RH  028%=      5-min Rain = 0
KPD1 142312Z 04007KT 33/12 A3014 RMK A01 T03320119  RH  027%=      5-min Rain = 0
KPD1 142313Z 05007KT 33/12 A3014 RMK A01 T03290118  RH  028%=      5-min Rain = 0
KPD1 142314Z 03004KT 33/12 A3014 RMK A01 T03280118  RH  028%=      5-min Rain = 0
KPD1 142315Z 07002KT 33/12 A3014 RMK A01 T03260117  RH  028%=      5-min Rain = 0
KPD1 142316Z 06004KT 33/12 A3014 RMK A01 T03260117  RH  028%=      5-min Rain = 0
KPD1 142317Z 06005KT 33/12 A3014 RMK A01 T03260118  RH  028%=      5-min Rain = 0
KPD1 142318Z 08007KT 33/12 A3014 RMK A01 T03270119  RH  028%=      5-min Rain = 0
KPD1 142319Z 08007KT 33/12 A3014 RMK A01 T03280119  RH  028%=      5-min Rain = 0
KPD1 142320Z 09005KT 33/12 A3014 RMK A01 T03290119  RH  028%=      5-min Rain = 0
KPD1 142321Z 13005KT 33/12 A3014 RMK A01 T03290119  RH  028%=      5-min Rain = 0
KPD1 142322Z 11003KT 33/12 A3014 RMK A01 T03300119  RH  028%=      5-min Rain = 0
KPD1 142323Z 09003KT 33/12 A3013 RMK A01 T03310119  RH  028%=      5-min Rain = 0
KPD1 142324Z 06005KT 33/12 A3013 RMK A01 T03310119  RH  027%=      5-min Rain = 0
KPD1 142325Z 05004KT 33/12 A3013 RMK A01 T03310119  RH  027%=      5-min Rain = 0
KPD1 142326Z 05005KT 33/12 A3013 RMK A01 T03300118  RH  028%=      5-min Rain = 0
KPD1 142327Z 03006KT 33/12 A3013 RMK A01 T03290117  RH  027%=      5-min Rain = 0
KPD1 142328Z 03004KT 33/12 A3013 RMK A01 T03270117  RH  028%=      5-min Rain = 0
KPD1 142329Z 04004KT 33/12 A3013 RMK A01 T03270118  RH  028%=      5-min Rain = 0
KPD1 142330Z 03005KT 33/12 A3013 RMK A01 T03270117  RH  028%=      5-min Rain = 0
KPD1 142331Z 05005KT 33/12 A3013 RMK A01 T03260117  RH  028%=      5-min Rain = 0
KPD1 142332Z 07003KT 33/12 A3013 RMK A01 T03250117  RH  028%=      5-min Rain = 0
KPD1 142333Z 07003KT 33/12 A3013 RMK A01 T03260119  RH  028%=      5-min Rain = 0
KPD1 142334Z 01004KT 33/12 A3013 RMK A01 T03280119  RH  028%=      5-min Rain = 0
KPD1 142335Z 03004KT 33/12 A3013 RMK A01 T03300120  RH  028%=      5-min Rain = 0
KPD1 142336Z 06004KT 33/12 A3013 RMK A01 T03300119  RH  028%=      5-min Rain = 0
KPD1 142337Z 08003KT 33/12 A3013 RMK A01 T03300119  RH  028%=      5-min Rain = 0
KPD1 142338Z 06006KT 33/12 A3013 RMK A01 T03300120  RH  028%=      5-min Rain = 0
KPD1 142339Z 06007KT 33/12 A3013 RMK A01 T03290119  RH  028%=      5-min Rain = 0
KPD1 142340Z 06006KT 33/12 A3013 RMK A01 T03280119  RH  028%=      5-min Rain = 0
KPD1 142341Z 09005KT 33/12 A3013 RMK A01 T03270119  RH  028%=      5-min Rain = 0
KPD1 142342Z 06004KT 33/12 A3013 RMK A01 T03270119  RH  028%=      5-min Rain = 0
KPD1 142343Z 04006KT 33/12 A3013 RMK A01 T03280118  RH  028%=      5-min Rain = 0
KPD1 142344Z 05004KT 33/12 A3013 RMK A01 T03260117  RH  028%=      5-min Rain = 0
KPD1 142345Z 09005KT 33/12 A3013 RMK A01 T03260118  RH  028%=      5-min Rain = 0
KPD1 142346Z 09005KT 33/12 A3013 RMK A01 T03260117  RH  028%=      5-min Rain = 0
KPD1 142347Z 07002KT 33/12 A3013 RMK A01 T03260117  RH  028%=      5-min Rain = 0
KPD1 142348Z 06003KT 33/12 A3013 RMK A01 T03260117  RH  028%=      5-min Rain = 0
KPD1 142349Z 07006KT 33/12 A3013 RMK A01 T03270120  RH  028%=      5-min Rain = 0
KPD1 142350Z 06005KT 33/12 A3013 RMK A01 T03270121  RH  028%=      5-min Rain = 0
KPD1 142351Z 05005KT 33/12 A3013 RMK A01 T03270121  RH  029%=      5-min Rain = 0
KPD1 142352Z 06005KT 33/12 A3013 RMK A01 T03250120  RH  029%=      5-min Rain = 0
KPD1 142353Z 08005KT 33/12 A3013 RMK A01 T03250121  RH  029%=      5-min Rain = 0
KPD1 142354Z 07005KT 33/12 A3013 RMK A01 T03250120  RH  029%=      5-min Rain = 0
KPD1 142355Z 06005KT 33/12 A3013 RMK A01 T03250119  RH  029%=      5-min Rain = 0
KPD1 142356Z 06005KT 32/12 A3013 RMK A01 T03240120  RH  029%=      5-min Rain = 0
KPD1 142357Z 06004KT 32/12 A3013 RMK A01 T03240119  RH  029%=      5-min Rain = 0
KPD1 142358Z 06004KT 32/12 A3013 RMK A01 T03240120  RH  029%=      5-min Rain = 0
KPD1 142359Z 04005KT 32/12 A3013 RMK A01 T03240119  RH  029%=      5-min Rain = 0
KPD1 150000Z 03003KT 32/12 A3013 RMK A01 T03240119  RH  029%=      5-min Rain = 0
KPD1 150001Z 03005KT 32/12 A3013 RMK A01 T03240119  RH  029%=      5-min Rain = 0
KPD1 150002Z 02007KT 32/12 A3013 RMK A01 T03240118  RH  028%=      5-min Rain = 0
KPD1 150003Z 04007KT 32/12 A3013 RMK A01 T03240118  RH  028%=      5-min Rain = 0
KPD1 150004Z 04005KT 32/12 A3013 RMK A01 T03230118  RH  029%=      5-min Rain = 0
KPD1 150005Z 05007KT 32/12 A3013 RMK A01 T03210116  RH  029%=      5-min Rain = 0
KPD1 150006Z 06006KT 32/12 A3013 RMK A01 T03210117  RH  029%=      5-min Rain = 0
KPD1 150007Z 06004KT 32/12 A3013 RMK A01 T03210117  RH  029%=      5-min Rain = 0
KPD1 150008Z 05005KT 32/12 A3013 RMK A01 T03200116  RH  029%=      5-min Rain = 0
KPD1 150009Z 05005KT 32/12 A3013 RMK A01 T03200115  RH  028%=      5-min Rain = 0
KPD1 150010Z 05006KT 32/12 A3013 RMK A01 T03200115  RH  029%=      5-min Rain = 0
KPD1 150011Z 05005KT 32/12 A3013 RMK A01 T03200115  RH  029%=      5-min Rain = 0
KPD1 150012Z 06003KT 32/12 A3013 RMK A01 T03190115  RH  029%=      5-min Rain = 0
KPD1 150013Z 06003KT 32/12 A3013 RMK A01 T03200117  RH  029%=      5-min Rain = 0
KPD1 150014Z 06004KT 32/12 A3013 RMK A01 T03210117  RH  029%=      5-min Rain = 0
KPD1 150015Z 07004KT 32/12 A3013 RMK A01 T03210117  RH  029%=      5-min Rain = 0
KPD1 150016Z 06003KT 32/12 A3012 RMK A01 T03220118  RH  029%=      5-min Rain = 0
KPD1 150017Z 05004KT 32/12 A3012 RMK A01 T03230117  RH  028%=      5-min Rain = 0
KPD1 150018Z 06005KT 32/12 A3012 RMK A01 T03230115  RH  028%=      5-min Rain = 0
KPD1 150019Z 06005KT 32/12 A3012 RMK A01 T03220115  RH  028%=      5-min Rain = 0
KPD1 150020Z 07005KT 32/11 A3012 RMK A01 T03210114  RH  028%=      5-min Rain = 0
KPD1 150021Z 08003KT 32/11 A3012 RMK A01 T03210113  RH  028%=      5-min Rain = 0
KPD1 150022Z 07002KT 32/12 A3012 RMK A01 T03210115  RH  028%=      5-min Rain = 0
KPD1 150023Z 07002KT 32/12 A3012 RMK A01 T03210116  RH  028%=      5-min Rain = 0
KPD1 150024Z 07002KT 32/12 A3012 RMK A01 T03220115  RH  028%=      5-min Rain = 0
KPD1 150025Z 08003KT 32/12 A3012 RMK A01 T03230115  RH  028%=      5-min Rain = 0
KPD1 150026Z 09002KT 32/12 A3012 RMK A01 T03230115  RH  028%=      5-min Rain = 0
KPD1 150027Z 09002KT 32/12 A3012 RMK A01 T03240115  RH  028%=      5-min Rain = 0
KPD1 150028Z 04003KT 32/12 A3012 RMK A01 T03240116  RH  028%=      5-min Rain = 0
KPD1 150029Z 05004KT 32/12 A3012 RMK A01 T03230117  RH  028%=      5-min Rain = 0
KPD1 150030Z 05005KT 32/12 A3012 RMK A01 T03210117  RH  029%=      5-min Rain = 0
KPD1 150031Z 06004KT 32/12 A3012 RMK A01 T03200116  RH  029%=      5-min Rain = 0
KPD1 150032Z 06004KT 32/12 A3012 RMK A01 T03180117  RH  029%=      5-min Rain = 0
KPD1 150033Z 09003KT 32/12 A3012 RMK A01 T03180119  RH  030%=      5-min Rain = 0
KPD1 150034Z 09005KT 32/12 A3013 RMK A01 T03180120  RH  030%=      5-min Rain = 0
KPD1 150035Z 08004KT 32/12 A3013 RMK A01 T03180120  RH  030%=      5-min Rain = 0
KPD1 150036Z 07005KT 32/12 A3013 RMK A01 T03180121  RH  030%=      5-min Rain = 0
KPD1 150037Z 07005KT 32/12 A3013 RMK A01 T03180120  RH  030%=      5-min Rain = 0
KPD1 150038Z 06004KT 32/12 A3013 RMK A01 T03180120  RH  030%=      5-min Rain = 0
KPD1 150039Z 07004KT 32/12 A3013 RMK A01 T03180120  RH  030%=      5-min Rain = 0
KPD1 150040Z 07004KT 32/12 A3013 RMK A01 T03180120  RH  030%=      5-min Rain = 0
KPD1 150041Z 06004KT 32/12 A3013 RMK A01 T03170120  RH  030%=      5-min Rain = 0
KPD1 150042Z 07004KT 32/12 A3013 RMK A01 T03160121  RH  030%=      5-min Rain = 0
KPD1 150043Z 08005KT 32/12 A3013 RMK A01 T03160121  RH  030%=      5-min Rain = 0
KPD1 150044Z 08007KT 32/12 A3013 RMK A01 T03160122  RH  031%=      5-min Rain = 0
KPD1 150045Z 07009KT 32/12 A3013 RMK A01 T03150121  RH  031%=      5-min Rain = 0
KPD1 150046Z 07008KT 31/12 A3013 RMK A01 T03140121  RH  031%=      5-min Rain = 0
KPD1 150047Z 08007KT 31/12 A3013 RMK A01 T03130121  RH  031%=      5-min Rain = 0
KPD1 150048Z 08005KT 31/12 A3013 RMK A01 T03120121  RH  031%=      5-min Rain = 0
KPD1 150049Z 06007KT 31/12 A3013 RMK A01 T03110120  RH  031%=      5-min Rain = 0
KPD1 150050Z 06004KT 31/12 A3013 RMK A01 T03100121  RH  031%=      5-min Rain = 0
KPD1 150051Z 06006KT 31/12 A3013 RMK A01 T03090120  RH  031%=      5-min Rain = 0
KPD1 150052Z 07008KT 31/12 A3013 RMK A01 T03080120  RH  031%=      5-min Rain = 0
KPD1 150053Z 07006KT 31/12 A3013 RMK A01 T03070120  RH  032%=      5-min Rain = 0
KPD1 150054Z 08006KT 31/12 A3013 RMK A01 T03070120  RH  032%=      5-min Rain = 0
KPD1 150055Z 08006KT 31/12 A3013 RMK A01 T03060120  RH  032%=      5-min Rain = 0
KPD1 150056Z 09005KT 31/12 A3013 RMK A01 T03060120  RH  032%=      5-min Rain = 0
KPD1 150057Z 08004KT 31/12 A3013 RMK A01 T03060120  RH  032%=      5-min Rain = 0
KPD1 150058Z 08006KT 31/12 A3013 RMK A01 T03050120  RH  032%=      5-min Rain = 0
KPD1 150059Z 09006KT 31/12 A3013 RMK A01 T03050121  RH  032%=      5-min Rain = 0
KPD1 150100Z 07006KT 30/12 A3013 RMK A01 T03040121  RH  032%=      5-min Rain = 0
KPD1 150101Z 07006KT 30/12 A3013 RMK A01 T03030121  RH  032%=      5-min Rain = 0
KPD1 150102Z 07004KT 30/12 A3014 RMK A01 T03030121  RH  033%=      5-min Rain = 0
KPD1 150103Z 07004KT 30/12 A3014 RMK A01 T03030121  RH  033%=      5-min Rain = 0
KPD1 150104Z 09004KT 30/12 A3014 RMK A01 T03020121  RH  033%=      5-min Rain = 0
KPD1 150105Z 07003KT 30/12 A3014 RMK A01 T03010120  RH  033%=      5-min Rain = 0
KPD1 150106Z 08003KT 30/12 A3014 RMK A01 T03000120  RH  033%=      5-min Rain = 0
KPD1 150107Z 09004KT 30/12 A3014 RMK A01 T03000120  RH  033%=      5-min Rain = 0
KPD1 150108Z 08006KT 30/12 A3014 RMK A01 T03000120  RH  033%=      5-min Rain = 0
KPD1 150109Z 07006KT 30/12 A3014 RMK A01 T02990121  RH  033%=      5-min Rain = 0
KPD1 150110Z 08006KT 30/12 A3014 RMK A01 T02980121  RH  034%=      5-min Rain = 0
KPD1 150111Z 07007KT 30/12 A3014 RMK A01 T02980121  RH  034%=      5-min Rain = 0
KPD1 150112Z 08005KT 30/12 A3014 RMK A01 T02980121  RH  034%=      5-min Rain = 0
KPD1 150113Z 08006KT 30/12 A3014 RMK A01 T02980122  RH  034%=      5-min Rain = 0
KPD1 150114Z 08005KT 30/12 A3014 RMK A01 T02970121  RH  034%=      5-min Rain = 0
KPD1 150115Z 08007KT 30/12 A3014 RMK A01 T02970121  RH  034%=      5-min Rain = 0
KPD1 150116Z 08006KT 30/12 A3014 RMK A01 T02970121  RH  034%=      5-min Rain = 0
KPD1 150117Z 08007KT 30/12 A3014 RMK A01 T02970121  RH  034%=      5-min Rain = 0
KPD1 150118Z 09006KT 30/12 A3014 RMK A01 T02970122  RH  034%=      5-min Rain = 0
KPD1 150119Z 08004KT 30/12 A3014 RMK A01 T02970123  RH  034%=      5-min Rain = 0
KPD1 150120Z 09004KT 30/12 A3014 RMK A01 T02970123  RH  034%=      5-min Rain = 0
KPD1 150121Z 08005KT 30/12 A3014 RMK A01 T02960123  RH  034%=      5-min Rain = 0
KPD1 150122Z 09006KT 30/12 A3014 RMK A01 T02960123  RH  035%=      5-min Rain = 0
KPD1 150123Z 08006KT 30/12 A3014 RMK A01 T02950123  RH  035%=      5-min Rain = 0
KPD1 150124Z 08007KT 29/12 A3014 RMK A01 T02940123  RH  035%=      5-min Rain = 0
KPD1 150125Z 08006KT 29/12 A3014 RMK A01 T02940124  RH  035%=      5-min Rain = 0
KPD1 150126Z 09006KT 29/12 A3014 RMK A01 T02940124  RH  035%=      5-min Rain = 0
KPD1 150127Z 08006KT 29/13 A3014 RMK A01 T02940125  RH  035%=      5-min Rain = 0
KPD1 150128Z 08006KT 29/12 A3014 RMK A01 T02940124  RH  035%=      5-min Rain = 0
KPD1 150129Z 09006KT 29/13 A3014 RMK A01 T02940125  RH  035%=      5-min Rain = 0
KPD1 150130Z 09005KT 29/12 A3014 RMK A01 T02930124  RH  035%=      5-min Rain = 0
KPD1 150131Z 08005KT 29/12 A3014 RMK A01 T02930124  RH  035%=      5-min Rain = 0
KPD1 150132Z 08006KT 29/12 A3014 RMK A01 T02930124  RH  035%=      5-min Rain = 0
KPD1 150133Z 09005KT 29/12 A3014 RMK A01 T02920124  RH  035%=      5-min Rain = 0
KPD1 150134Z 09006KT 29/12 A3015 RMK A01 T02920124  RH  035%=      5-min Rain = 0
KPD1 150135Z 08006KT 29/12 A3015 RMK A01 T02920124  RH  035%=      5-min Rain = 0
KPD1 150136Z 09005KT 29/12 A3015 RMK A01 T02920123  RH  035%=      5-min Rain = 0
KPD1 150137Z 08007KT 29/12 A3015 RMK A01 T02920124  RH  035%=      5-min Rain = 0
KPD1 150138Z 08005KT 29/12 A3015 RMK A01 T02920124  RH  036%=      5-min Rain = 0
KPD1 150139Z 08006KT 29/12 A3015 RMK A01 T02910124  RH  036%=      5-min Rain = 0
KPD1 150140Z 08006KT 29/12 A3015 RMK A01 T02910124  RH  036%=      5-min Rain = 0
KPD1 150141Z 08006KT 29/12 A3015 RMK A01 T02910124  RH  036%=      5-min Rain = 0
KPD1 150142Z 08004KT 29/12 A3015 RMK A01 T02910124  RH  036%=      5-min Rain = 0
KPD1 150143Z 08006KT 29/13 A3015 RMK A01 T02910125  RH  036%=      5-min Rain = 0
KPD1 150144Z 09003KT 29/12 A3015 RMK A01 T02900124  RH  036%=      5-min Rain = 0
KPD1 150145Z 10003KT 29/12 A3015 RMK A01 T02900124  RH  036%=      5-min Rain = 0
KPD1 150146Z 10003KT 29/12 A3015 RMK A01 T02890124  RH  036%=      5-min Rain = 0
KPD1 150147Z 09003KT 29/12 A3015 RMK A01 T02880124  RH  036%=      5-min Rain = 0
KPD1 150148Z 08003KT 29/12 A3015 RMK A01 T02880124  RH  036%=      5-min Rain = 0
KPD1 150149Z 10002KT 29/12 A3015 RMK A01 T02870124  RH  037%=      5-min Rain = 0
KPD1 150150Z 10002KT 29/12 A3015 RMK A01 T02870124  RH  037%=      5-min Rain = 0
KPD1 150151Z 11002KT 29/13 A3015 RMK A01 T02860125  RH  037%=      5-min Rain = 0
KPD1 150152Z 11003KT 29/13 A3015 RMK A01 T02850125  RH  037%=      5-min Rain = 0
KPD1 150153Z 08003KT 29/13 A3015 RMK A01 T02850125  RH  037%=      5-min Rain = 0
KPD1 150154Z 10002KT 28/12 A3015 RMK A01 T02840124  RH  037%=      5-min Rain = 0
KPD1 150155Z 11003KT 29/13 A3015 RMK A01 T02850125  RH  037%=      5-min Rain = 0
KPD1 150156Z 11002KT 28/13 A3015 RMK A01 T02840125  RH  037%=      5-min Rain = 0
KPD1 150157Z 09003KT 28/13 A3015 RMK A01 T02830125  RH  038%=      5-min Rain = 0
KPD1 150158Z 10003KT 28/13 A3015 RMK A01 T02830125  RH  038%=      5-min Rain = 0
KPD1 150159Z 11004KT 28/13 A3015 RMK A01 T02820125  RH  038%=      5-min Rain = 0
KPD1 150200Z 11003KT 28/13 A3015 RMK A01 T02820125  RH  038%=      5-min Rain = 0
KPD1 150201Z 12003KT 28/13 A3015 RMK A01 T02820125  RH  038%=      5-min Rain = 0
KPD1 150202Z 11003KT 28/13 A3015 RMK A01 T02810125  RH  038%=      5-min Rain = 0
KPD1 150203Z 10003KT 28/12 A3015 RMK A01 T02810124  RH  038%=      5-min Rain = 0
KPD1 150204Z 11003KT 28/13 A3015 RMK A01 T02820125  RH  038%=      5-min Rain = 0
KPD1 150205Z 11002KT 28/13 A3016 RMK A01 T02820126  RH  038%=      5-min Rain = 0
KPD1 150206Z 11003KT 28/13 A3016 RMK A01 T02810125  RH  038%=      5-min Rain = 0
KPD1 150207Z 11004KT 28/13 A3016 RMK A01 T02800125  RH  038%=      5-min Rain = 0
KPD1 150208Z 11003KT 28/13 A3016 RMK A01 T02800125  RH  038%=      5-min Rain = 0
KPD1 150209Z 11003KT 28/13 A3016 RMK A01 T02800125  RH  038%=      5-min Rain = 0
KPD1 150210Z 12002KT 28/12 A3016 RMK A01 T02800124  RH  038%=      5-min Rain = 0
KPD1 150211Z 12002KT 28/13 A3016 RMK A01 T02800125  RH  038%=      5-min Rain = 0
KPD1 150212Z 10003KT 28/12 A3016 RMK A01 T02800124  RH  038%=      5-min Rain = 0
KPD1 150213Z 10002KT 28/13 A3016 RMK A01 T02810125  RH  038%=      5-min Rain = 0
KPD1 150214Z 12002KT 28/13 A3016 RMK A01 T02800125  RH  038%=      5-min Rain = 0
KPD1 150215Z 13003KT 28/13 A3016 RMK A01 T02790125  RH  038%=      5-min Rain = 0
KPD1 150216Z 13001KT 28/13 A3016 RMK A01 T02790125  RH  039%=      5-min Rain = 0
KPD1 150217Z 12002KT 28/13 A3016 RMK A01 T02780125  RH  039%=      5-min Rain = 0
KPD1 150218Z 10003KT 28/13 A3016 RMK A01 T02770125  RH  039%=      5-min Rain = 0
KPD1 150219Z 11002KT 28/13 A3016 RMK A01 T02770125  RH  039%=      5-min Rain = 0
KPD1 150220Z 12004KT 28/13 A3016 RMK A01 T02770125  RH  039%=      5-min Rain = 0
KPD1 150221Z 11003KT 28/13 A3016 RMK A01 T02770125  RH  039%=      5-min Rain = 0
KPD1 150222Z 13003KT 28/12 A3016 RMK A01 T02760124  RH  039%=      5-min Rain = 0
KPD1 150223Z 10003KT 28/12 A3016 RMK A01 T02760124  RH  039%=      5-min Rain = 0
KPD1 150224Z 12004KT 28/12 A3016 RMK A01 T02760124  RH  039%=      5-min Rain = 0
KPD1 150225Z 12003KT 28/12 A3016 RMK A01 T02760124  RH  039%=      5-min Rain = 0
KPD1 150226Z 11004KT 28/12 A3016 RMK A01 T02770124  RH  039%=      5-min Rain = 0
KPD1 150227Z 11002KT 28/12 A3016 RMK A01 T02760124  RH  039%=      5-min Rain = 0
KPD1 150228Z 12002KT 28/12 A3016 RMK A01 T02770124  RH  039%=      5-min Rain = 0
KPD1 150229Z 11004KT 28/12 A3016 RMK A01 T02770124  RH  039%=      5-min Rain = 0
KPD1 150230Z 12005KT 28/12 A3016 RMK A01 T02770124  RH  039%=      5-min Rain = 0
KPD1 150231Z 12007KT 28/12 A3016 RMK A01 T02780124  RH  039%=      5-min Rain = 0
KPD1 150232Z 13006KT 28/13 A3016 RMK A01 T02790126  RH  039%=      5-min Rain = 0
KPD1 150233Z 12005KT 28/13 A3016 RMK A01 T02800126  RH  039%=      5-min Rain = 0
KPD1 150234Z 11005KT 28/13 A3016 RMK A01 T02810126  RH  038%=      5-min Rain = 0
KPD1 150235Z 12006KT 28/13 A3016 RMK A01 T02810127  RH  039%=      5-min Rain = 0
KPD1 150236Z 12008KT 28/13 A3016 RMK A01 T02810127  RH  038%=      5-min Rain = 0
KPD1 150237Z 11007KT 28/13 A3016 RMK A01 T02820129  RH  039%=      5-min Rain = 0
KPD1 150238Z 13002KT 28/13 A3016 RMK A01 T02830129  RH  039%=      5-min Rain = 0
KPD1 150239Z 13002KT 28/13 A3016 RMK A01 T02830129  RH  039%=      5-min Rain = 0
KPD1 150240Z 11008KT 28/13 A3016 RMK A01 T02830129  RH  039%=      5-min Rain = 0
KPD1 150241Z 13004KT 28/13 A3016 RMK A01 T02820130  RH  039%=      5-min Rain = 0
KPD1 150242Z 13005KT 28/13 A3017 RMK A01 T02820132  RH  039%=      5-min Rain = 0
KPD1 150243Z 15008KT 28/13 A3017 RMK A01 T02820132  RH  040%=      5-min Rain = 0
KPD1 150244Z 15008KT 28/13 A3017 RMK A01 T02820133  RH  040%=      5-min Rain = 0
KPD1 150245Z 14008KT 28/13 A3017 RMK A01 T02820134  RH  040%=      5-min Rain = 0
KPD1 150246Z 13008KT 28/13 A3017 RMK A01 T02820134  RH  040%=      5-min Rain = 0
KPD1 150247Z 13009KT 28/13 A3017 RMK A01 T02820134  RH  040%=      5-min Rain = 0
KPD1 150248Z 15008KT 28/14 A3017 RMK A01 T02830135  RH  040%=      5-min Rain = 0
KPD1 150249Z 14007KT 28/14 A3017 RMK A01 T02820135  RH  040%=      5-min Rain = 0
KPD1 150250Z 14007G12KT 28/14 A3017 RMK A01 T02820135  RH  040%=      5-min Rain = 0
KPD1 150251Z 15010KT 28/14 A3017 RMK A01 T02820136  RH  041%=      5-min Rain = 0
KPD1 150252Z 14010KT 28/14 A3017 RMK A01 T02820136  RH  041%=      5-min Rain = 0
KPD1 150253Z 15008KT 28/14 A3017 RMK A01 T02820136  RH  041%=      5-min Rain = 0
KPD1 150254Z 14009G14KT 28/14 A3017 RMK A01 T02820136  RH  041%=      5-min Rain = 0
KPD1 150255Z 14005KT 28/14 A3017 RMK A01 T02820136  RH  041%=      5-min Rain = 0
KPD1 150256Z 12006KT 28/14 A3017 RMK A01 T02820137  RH  041%=      5-min Rain = 0
KPD1 150257Z 15007KT 28/14 A3017 RMK A01 T02820137  RH  041%=      5-min Rain = 0
KPD1 150258Z 14007KT 28/14 A3017 RMK A01 T02820138  RH  041%=      5-min Rain = 0
KPD1 150259Z 14006KT 28/14 A3017 RMK A01 T02810138  RH  041%=      5-min Rain = 0
KPD1 150300Z 15010KT 28/14 A3017 RMK A01 T02810138  RH  041%=      5-min Rain = 0
KPD1 150301Z 13007KT 28/14 A3017 RMK A01 T02810139  RH  042%=      5-min Rain = 0
KPD1 150302Z 14007KT 28/14 A3017 RMK A01 T02810138  RH  042%=      5-min Rain = 0
KPD1 150303Z 15008KT 28/14 A3017 RMK A01 T02810138  RH  042%=      5-min Rain = 0
KPD1 150304Z 15009KT 28/14 A3017 RMK A01 T02810139  RH  042%=      5-min Rain = 0
KPD1 150305Z 14008KT 28/14 A3017 RMK A01 T02810139  RH  042%=      5-min Rain = 0
KPD1 150306Z 14008KT 28/14 A3017 RMK A01 T02810140  RH  042%=      5-min Rain = 0
KPD1 150307Z 13007KT 28/14 A3017 RMK A01 T02810140  RH  042%=      5-min Rain = 0
KPD1 150308Z 14007KT 28/14 A3017 RMK A01 T02810140  RH  042%=      5-min Rain = 0
KPD1 150309Z 13006KT 28/14 A3018 RMK A01 T02810140  RH  042%=      5-min Rain = 0
KPD1 150310Z 15009KT 28/14 A3018 RMK A01 T02800141  RH  042%=      5-min Rain = 0
KPD1 150311Z 14007KT 28/14 A3018 RMK A01 T02800141  RH  042%=      5-min Rain = 0
KPD1 150312Z 15006KT 28/14 A3017 RMK A01 T02800141  RH  042%=      5-min Rain = 0
KPD1 150313Z 14004KT 28/14 A3018 RMK A01 T02800141  RH  042%=      5-min Rain = 0
KPD1 150314Z 12006G11KT 28/14 A3018 RMK A01 T02800141  RH  043%=      5-min Rain = 0
KPD1 150315Z 14006KT 28/14 A3018 RMK A01 T02800141  RH  043%=      5-min Rain = 0
KPD1 150316Z 14008KT 28/14 A3018 RMK A01 T02790141  RH  043%=      5-min Rain = 0
KPD1 150317Z 15007KT 28/14 A3018 RMK A01 T02790140  RH  043%=      5-min Rain = 0
KPD1 150318Z 15009KT 28/14 A3018 RMK A01 T02790141  RH  043%=      5-min Rain = 0
KPD1 150319Z 14007KT 28/14 A3018 RMK A01 T02790141  RH  043%=      5-min Rain = 0
KPD1 150320Z 14006KT 28/14 A3018 RMK A01 T02790141  RH  043%=      5-min Rain = 0
KPD1 150321Z 14009KT 28/14 A3018 RMK A01 T02800141  RH  043%=      5-min Rain = 0
KPD1 150322Z 14007KT 28/14 A3018 RMK A01 T02800140  RH  042%=      5-min Rain = 0
KPD1 150323Z 13006KT 28/14 A3018 RMK A01 T02800140  RH  042%=      5-min Rain = 0
KPD1 150324Z 14008KT 28/14 A3018 RMK A01 T02790140  RH  043%=      5-min Rain = 0
KPD1 150325Z 15007KT 28/14 A3018 RMK A01 T02790141  RH  043%=      5-min Rain = 0
KPD1 150326Z 14005KT 28/14 A3018 RMK A01 T02790140  RH  043%=      5-min Rain = 0
KPD1 150327Z 14006KT 28/14 A3018 RMK A01 T02790140  RH  043%=      5-min Rain = 0
KPD1 150328Z 14006KT 28/14 A3018 RMK A01 T02780140  RH  043%=      5-min Rain = 0
KPD1 150329Z 14005KT 28/14 A3019 RMK A01 T02780140  RH  043%=      5-min Rain = 0
KPD1 150330Z 13007KT 28/14 A3019 RMK A01 T02780140  RH  043%=      5-min Rain = 0
KPD1 150331Z 15007KT 28/14 A3019 RMK A01 T02780140  RH  043%=      5-min Rain = 0
KPD1 150332Z 13007KT 28/14 A3019 RMK A01 T02780139  RH  043%=      5-min Rain = 0
KPD1 150333Z 14006KT 28/14 A3019 RMK A01 T02780140  RH  043%=      5-min Rain = 0
KPD1 150334Z 15007KT 28/14 A3019 RMK A01 T02780139  RH  043%=      5-min Rain = 0
KPD1 150335Z 15006KT 28/14 A3019 RMK A01 T02780139  RH  043%=      5-min Rain = 0
KPD1 150336Z 14007KT 28/14 A3019 RMK A01 T02780139  RH  043%=      5-min Rain = 0
KPD1 150337Z 14005KT 28/14 A3019 RMK A01 T02780140  RH  043%=      5-min Rain = 0
KPD1 150338Z 14006KT 28/14 A3019 RMK A01 T02770140  RH  043%=      5-min Rain = 0
KPD1 150339Z 13007KT 28/14 A3019 RMK A01 T02770139  RH  043%=      5-min Rain = 0
KPD1 150340Z 15006KT 28/14 A3019 RMK A01 T02770139  RH  043%=      5-min Rain = 0
KPD1 150341Z 14007KT 28/14 A3019 RMK A01 T02770139  RH  043%=      5-min Rain = 0
KPD1 150342Z 15008KT 28/14 A3019 RMK A01 T02770139  RH  043%=      5-min Rain = 0
KPD1 150343Z 13006KT 28/14 A3019 RMK A01 T02770139  RH  043%=      5-min Rain = 0
KPD1 150344Z 13007KT 28/14 A302 RMK A01 T02770139  RH  043%=      5-min Rain = 0
KPD1 150345Z 14008KT 28/14 A302 RMK A01 T02770139  RH  043%=      5-min Rain = 0
KPD1 150346Z 14006KT 28/14 A302 RMK A01 T02770139  RH  043%=      5-min Rain = 0
KPD1 150347Z 14009KT 28/14 A302 RMK A01 T02770138  RH  043%=      5-min Rain = 0
KPD1 150348Z 13007KT 28/14 A302 RMK A01 T02770138  RH  043%=      5-min Rain = 0
KPD1 150349Z 14010KT 28/14 A302 RMK A01 T02770139  RH  043%=      5-min Rain = 0
KPD1 150350Z 14009KT 28/14 A302 RMK A01 T02770139  RH  043%=      5-min Rain = 0
KPD1 150351Z 14009G14KT 28/14 A302 RMK A01 T02770139  RH  043%=      5-min Rain = 0
KPD1 150352Z 15009KT 28/14 A302 RMK A01 T02780140  RH  043%=      5-min Rain = 0
KPD1 150353Z 14006KT 28/14 A302 RMK A01 T02780140  RH  043%=      5-min Rain = 0
KPD1 150354Z 14008KT 28/14 A302 RMK A01 T02780140  RH  043%=      5-min Rain = 0
KPD1 150355Z 14008KT 28/14 A302 RMK A01 T02780140  RH  043%=      5-min Rain = 0
KPD1 150356Z 13009KT 28/14 A302 RMK A01 T02770140  RH  043%=      5-min Rain = 0
KPD1 150357Z 14008KT 28/14 A302 RMK A01 T02770140  RH  043%=      5-min Rain = 0
KPD1 150358Z 13009KT 28/14 A302 RMK A01 T02770140  RH  043%=      5-min Rain = 0
KPD1 150359Z 14009KT 28/14 A302 RMK A01 T02770140  RH  043%=      5-min Rain = 0
KPD1 150400Z 14007KT 28/14 A302 RMK A01 T02770140  RH  043%=      5-min Rain = 0
KPD1 150401Z 13007KT 28/14 A302 RMK A01 T02760140  RH  043%=      5-min Rain = 0
KPD1 150402Z 13009KT 28/14 A302 RMK A01 T02760140  RH  043%=      5-min Rain = 0
KPD1 150403Z 14007KT 28/14 A302 RMK A01 T02760141  RH  044%=      5-min Rain = 0
KPD1 150404Z 14009KT 28/14 A302 RMK A01 T02760141  RH  044%=      5-min Rain = 0
KPD1 150405Z 13008KT 28/14 A302 RMK A01 T02750141  RH  044%=      5-min Rain = 0
KPD1 150406Z 15009KT 28/14 A302 RMK A01 T02750142  RH  044%=      5-min Rain = 0
KPD1 150407Z 13006KT 28/14 A302 RMK A01 T02750142  RH  044%=      5-min Rain = 0
KPD1 150408Z 14006KT 28/14 A302 RMK A01 T02750142  RH  044%=      5-min Rain = 0
KPD1 150409Z 14009KT 27/14 A302 RMK A01 T02740142  RH  044%=      5-min Rain = 0
KPD1 150410Z 14008KT 27/14 A302 RMK A01 T02740142  RH  044%=      5-min Rain = 0
KPD1 150411Z 13010KT 27/14 A302 RMK A01 T02740143  RH  044%=      5-min Rain = 0
KPD1 150412Z 13009KT 27/14 A302 RMK A01 T02740143  RH  045%=      5-min Rain = 0
KPD1 150413Z 14007KT 27/14 A302 RMK A01 T02740143  RH  045%=      5-min Rain = 0
KPD1 150414Z 14009KT 27/14 A302 RMK A01 T02740143  RH  045%=      5-min Rain = 0
KPD1 150415Z 15010KT 27/14 A302 RMK A01 T02730143  RH  045%=      5-min Rain = 0
KPD1 150416Z 13009KT 27/14 A302 RMK A01 T02730144  RH  045%=      5-min Rain = 0
KPD1 150417Z 12009G14KT 27/14 A302 RMK A01 T02730144  RH  045%=      5-min Rain = 0
KPD1 150418Z 14008KT 27/15 A302 RMK A01 T02730145  RH  045%=      5-min Rain = 0
KPD1 150419Z 13006KT 27/14 A302 RMK A01 T02730144  RH  045%=      5-min Rain = 0
KPD1 150420Z 14007KT 27/15 A302 RMK A01 T02730145  RH  045%=      5-min Rain = 0
KPD1 150421Z 14006KT 27/14 A302 RMK A01 T02730144  RH  045%=      5-min Rain = 0
KPD1 150422Z 14008KT 27/15 A302 RMK A01 T02720145  RH  045%=      5-min Rain = 0
KPD1 150423Z 14005KT 27/15 A302 RMK A01 T02720145  RH  046%=      5-min Rain = 0
KPD1 150424Z 14005KT 27/15 A302 RMK A01 T02720145  RH  046%=      5-min Rain = 0
KPD1 150425Z 14008KT 27/15 A302 RMK A01 T02720145  RH  046%=      5-min Rain = 0
KPD1 150426Z 14008KT 27/15 A302 RMK A01 T02720145  RH  046%=      5-min Rain = 0
KPD1 150427Z 14007KT 27/15 A302 RMK A01 T02720146  RH  046%=      5-min Rain = 0
KPD1 150428Z 13008KT 27/15 A302 RMK A01 T02720146  RH  046%=      5-min Rain = 0
KPD1 150429Z 14007KT 27/15 A302 RMK A01 T02720145  RH  046%=      5-min Rain = 0
KPD1 150430Z 14004KT 27/15 A302 RMK A01 T02710145  RH  046%=      5-min Rain = 0
KPD1 150431Z 13006KT 27/15 A302 RMK A01 T02710145  RH  046%=      5-min Rain = 0
KPD1 150432Z 13006KT 27/15 A302 RMK A01 T02710146  RH  046%=      5-min Rain = 0
KPD1 150433Z 13006KT 27/15 A302 RMK A01 T02710146  RH  046%=      5-min Rain = 0
KPD1 150434Z 14004KT 27/15 A302 RMK A01 T02700146  RH  046%=      5-min Rain = 0
KPD1 150435Z 15004KT 27/15 A302 RMK A01 T02700146  RH  046%=      5-min Rain = 0
KPD1 150436Z 15005KT 27/15 A302 RMK A01 T02690145  RH  047%=      5-min Rain = 0
KPD1 150437Z 14006KT 27/15 A302 RMK A01 T02690146  RH  047%=      5-min Rain = 0
KPD1 150438Z 14005KT 27/15 A302 RMK A01 T02690146  RH  047%=      5-min Rain = 0
KPD1 150439Z 15006KT 27/15 A302 RMK A01 T02690146  RH  047%=      5-min Rain = 0
KPD1 150440Z 15006KT 27/15 A302 RMK A01 T02680146  RH  047%=      5-min Rain = 0
KPD1 150441Z 14005KT 27/15 A302 RMK A01 T02680146  RH  047%=      5-min Rain = 0
KPD1 150442Z 14007KT 27/15 A302 RMK A01 T02680146  RH  047%=      5-min Rain = 0
KPD1 150443Z 14009KT 27/15 A302 RMK A01 T02680147  RH  047%=      5-min Rain = 0
KPD1 150444Z 14007KT 27/15 A302 RMK A01 T02680147  RH  047%=      5-min Rain = 0
KPD1 150445Z 13007KT 27/15 A302 RMK A01 T02680147  RH  047%=      5-min Rain = 0
KPD1 150446Z 14006KT 27/15 A302 RMK A01 T02690147  RH  047%=      5-min Rain = 0
KPD1 150447Z 14005KT 27/15 A302 RMK A01 T02690148  RH  047%=      5-min Rain = 0
KPD1 150448Z 14006KT 27/15 A302 RMK A01 T02690147  RH  047%=      5-min Rain = 0
KPD1 150449Z 13006KT 27/15 A302 RMK A01 T02690148  RH  047%=      5-min Rain = 0
KPD1 150450Z 14005KT 27/15 A302 RMK A01 T02690148  RH  047%=      5-min Rain = 0
KPD1 150451Z 14005KT 27/15 A302 RMK A01 T02680148  RH  048%=      5-min Rain = 0
KPD1 150452Z 14005KT 27/15 A302 RMK A01 T02680148  RH  048%=      5-min Rain = 0
KPD1 150453Z 13006KT 27/15 A302 RMK A01 T02680148  RH  048%=      5-min Rain = 0
KPD1 150454Z 14007KT 27/15 A302 RMK A01 T02680148  RH  048%=      5-min Rain = 0
KPD1 150455Z 14006KT 27/15 A302 RMK A01 T02680148  RH  048%=      5-min Rain = 0
KPD1 150456Z 13007KT 27/15 A302 RMK A01 T02670148  RH  048%=      5-min Rain = 0
KPD1 150457Z 14005KT 27/15 A302 RMK A01 T02670149  RH  048%=      5-min Rain = 0
KPD1 150458Z 13005KT 27/15 A302 RMK A01 T02670148  RH  048%=      5-min Rain = 0
KPD1 150459Z 14005KT 27/15 A302 RMK A01 T02670148  RH  048%=      5-min Rain = 0

Page generated in 0.1221 seconds.